^^
B2 Weather Station Historical Data
Daily Summary for January 1, 2018 Units:  Both    English   Metric
« Previous Day
Next Day »
Daily Weekly Monthly Yearly Custom
  High: Low: Average:
Temperature: -1.9 °F /  -18.8 °C -11.3 °F /  -24.1 °C -7.1 °F /  -21.7 °C
Dew Point: -9.0 °F /  -22.8 °C -16.9 °F /  -27.2 °C -13.2 °F /  -25.1 °C
Humidity: 80 % 68 % 74 %
Wind Speed: 15.0 mph /  24.1 km/h - 8.6 mph /  13.8 km/h
Wind Gust: 15.0 mph /  24.1 km/h - -
Wind:- - West
Pressure: 30.83 in /  1043.9 hPa 30.73 in /  1040.5 hPa -
Precipitation: 0.00 in /  0 mm    
Historical Graphs
 
 
Tabular Data for January 1, 2018
Time Temperature Dew Point Pressure Wind Wind Speed Wind Gust Humidity Rainfall Rate (Hourly) solar Conditions
00:02 -3.4 °F /  -19.7 °C -9.6 °F /  -23.1 °C 30.73 in /  1040.5 hPa WNW 11.5 mph /  18.5 km/h 11.5 mph /  18.5 km/h 74 % 0.00 in /  0 mm 0.0 W/m2 CLR
00:03 -3.5 °F /  -19.7 °C -9.7 °F /  -23.2 °C 30.73 in /  1040.5 hPa West 5.8 mph /  9.3 km/h 5.8 mph /  9.3 km/h 74 % 0.00 in /  0 mm 0.0 W/m2 CLR
00:07 -3.6 °F /  -19.8 °C -9.8 °F /  -23.2 °C 30.73 in /  1040.5 hPa WNW 6.9 mph /  11.1 km/h 6.9 mph /  11.1 km/h 74 % 0.00 in /  0 mm 0.0 W/m2 CLR
00:09 -3.6 °F /  -19.8 °C -9.8 °F /  -23.2 °C 30.73 in /  1040.5 hPa WNW 13.8 mph /  22.2 km/h 13.8 mph /  22.2 km/h 74 % 0.00 in /  0 mm 0.0 W/m2 CLR
00:14 -3.7 °F /  -19.8 °C -9.9 °F /  -23.3 °C 30.73 in /  1040.5 hPa WNW 5.8 mph /  9.3 km/h 5.8 mph /  9.3 km/h 74 % 0.00 in /  0 mm 0.0 W/m2 CLR
00:16 -3.8 °F /  -19.9 °C -10.0 °F /  -23.3 °C 30.73 in /  1040.5 hPa NW 9.2 mph /  14.8 km/h 9.2 mph /  14.8 km/h 74 % 0.00 in /  0 mm 0.0 W/m2 CLR
00:19 -3.9 °F /  -19.9 °C -10.1 °F /  -23.4 °C 30.73 in /  1040.5 hPa WNW 11.5 mph /  18.5 km/h 11.5 mph /  18.5 km/h 74 % 0.00 in /  0 mm 0.0 W/m2 CLR
00:21 -3.8 °F /  -19.9 °C -10.0 °F /  -23.3 °C 30.73 in /  1040.5 hPa WNW 11.5 mph /  18.5 km/h 11.5 mph /  18.5 km/h 74 % 0.00 in /  0 mm 0.0 W/m2 CLR
00:26 -3.8 °F /  -19.9 °C -10.0 °F /  -23.3 °C 30.73 in /  1040.5 hPa NW 10.4 mph /  16.7 km/h 10.4 mph /  16.7 km/h 74 % 0.00 in /  0 mm 0.0 W/m2 CLR
00:30 -3.8 °F /  -19.9 °C -10.0 °F /  -23.3 °C 30.73 in /  1040.5 hPa WNW 12.7 mph /  20.4 km/h 12.7 mph /  20.4 km/h 74 % 0.00 in /  0 mm 0.0 W/m2 CLR
00:35 -3.8 °F /  -19.9 °C -10.0 °F /  -23.3 °C 30.73 in /  1040.5 hPa NW 11.5 mph /  18.5 km/h 11.5 mph /  18.5 km/h 74 % 0.00 in /  0 mm 0.0 W/m2 CLR
00:36 -3.8 °F /  -19.9 °C -10.0 °F /  -23.3 °C 30.73 in /  1040.5 hPa NW 9.2 mph /  14.8 km/h 9.2 mph /  14.8 km/h 74 % 0.00 in /  0 mm 0.0 W/m2 CLR
00:41 -4.0 °F /  -20 °C -10.2 °F /  -23.4 °C 30.73 in /  1040.5 hPa West 9.2 mph /  14.8 km/h 9.2 mph /  14.8 km/h 74 % 0.00 in /  0 mm 0.0 W/m2 CLR
00:42 -4.0 °F /  -20 °C -10.2 °F /  -23.4 °C 30.73 in /  1040.5 hPa WNW 11.5 mph /  18.5 km/h 11.5 mph /  18.5 km/h 74 % 0.00 in /  0 mm 0.0 W/m2 CLR
00:44 -4.1 °F /  -20.1 °C -10.3 °F /  -23.5 °C 30.73 in /  1040.5 hPa West 11.5 mph /  18.5 km/h 11.5 mph /  18.5 km/h 74 % 0.00 in /  0 mm 0.0 W/m2 CLR
00:47 -4.2 °F /  -20.1 °C -10.4 °F /  -23.6 °C 30.74 in /  1040.9 hPa WNW 10.0 mph /  16.1 km/h 10.0 mph /  16.1 km/h 74 % 0.00 in /  0 mm 0.0 W/m2 CLR
00:52 -4.4 °F /  -20.2 °C -10.6 °F /  -23.7 °C 30.74 in /  1040.9 hPa NW 10.4 mph /  16.7 km/h 10.4 mph /  16.7 km/h 74 % 0.00 in /  0 mm 0.0 W/m2 CLR
00:53 -4.4 °F /  -20.2 °C -10.6 °F /  -23.7 °C 30.74 in /  1040.9 hPa WNW 10.4 mph /  16.7 km/h 10.4 mph /  16.7 km/h 74 % 0.00 in /  0 mm 0.0 W/m2 CLR
00:57 -4.5 °F /  -20.3 °C -10.7 °F /  -23.7 °C 30.74 in /  1040.9 hPa WNW 9.2 mph /  14.8 km/h 9.2 mph /  14.8 km/h 74 % 0.00 in /  0 mm 0.0 W/m2 CLR
00:58 -4.6 °F /  -20.3 °C -10.8 °F /  -23.8 °C 30.74 in /  1040.9 hPa WNW 11.0 mph /  17.7 km/h 11.0 mph /  17.7 km/h 74 % 0.00 in /  0 mm 0.0 W/m2 CLR
00:59 -4.6 °F /  -20.3 °C -10.8 °F /  -23.8 °C 30.74 in /  1040.9 hPa West 11.5 mph /  18.5 km/h 11.5 mph /  18.5 km/h 74 % 0.00 in /  0 mm 0.0 W/m2 CLR
01:02 -4.6 °F /  -20.3 °C -11.1 °F /  -23.9 °C 30.74 in /  1040.9 hPa WNW 10.4 mph /  16.7 km/h 10.4 mph /  16.7 km/h 73 % 0.00 in /  0 mm 0.0 W/m2 CLR
01:05 -4.7 °F /  -20.4 °C -11.2 °F /  -24 °C 30.74 in /  1040.9 hPa WNW 9.2 mph /  14.8 km/h 9.2 mph /  14.8 km/h 73 % 0.00 in /  0 mm 0.0 W/m2 CLR
01:09 -4.8 °F /  -20.4 °C -11.3 °F /  -24.1 °C 30.74 in /  1040.9 hPa WNW 8.1 mph /  13 km/h 8.1 mph /  13 km/h 73 % 0.00 in /  0 mm 0.0 W/m2 CLR
01:12 -4.8 °F /  -20.4 °C -11.3 °F /  -24.1 °C 30.74 in /  1040.9 hPa WNW 11.5 mph /  18.5 km/h 11.5 mph /  18.5 km/h 73 % 0.00 in /  0 mm 0.0 W/m2 CLR
01:15 -4.9 °F /  -20.5 °C -11.3 °F /  -24.1 °C 30.74 in /  1040.9 hPa WNW 11.5 mph /  18.5 km/h 11.5 mph /  18.5 km/h 73 % 0.00 in /  0 mm 0.0 W/m2 CLR
01:19 -5.0 °F /  -20.6 °C -11.4 °F /  -24.1 °C 30.74 in /  1040.9 hPa WNW 9.2 mph /  14.8 km/h 9.2 mph /  14.8 km/h 73 % 0.00 in /  0 mm 0.0 W/m2 CLR
01:20 -5.1 °F /  -20.6 °C -11.5 °F /  -24.2 °C 30.74 in /  1040.9 hPa WNW 10.4 mph /  16.7 km/h 10.4 mph /  16.7 km/h 73 % 0.00 in /  0 mm 0.0 W/m2 CLR
01:24 -5.2 °F /  -20.7 °C -11.6 °F /  -24.2 °C 30.74 in /  1040.9 hPa WNW 11.5 mph /  18.5 km/h 11.5 mph /  18.5 km/h 73 % 0.00 in /  0 mm 0.0 W/m2 CLR
01:29 -5.2 °F /  -20.7 °C -11.6 °F /  -24.2 °C 30.74 in /  1040.9 hPa WNW 9.0 mph /  14.5 km/h 9.0 mph /  14.5 km/h 73 % 0.00 in /  0 mm 0.0 W/m2 CLR
01:32 -5.3 °F /  -20.7 °C -11.7 °F /  -24.3 °C 30.74 in /  1040.9 hPa NW 13.8 mph /  22.2 km/h 13.8 mph /  22.2 km/h 73 % 0.00 in /  0 mm 0.0 W/m2 CLR
01:33 -5.3 °F /  -20.7 °C -11.7 °F /  -24.3 °C 30.74 in /  1040.9 hPa WNW 13.8 mph /  22.2 km/h 13.8 mph /  22.2 km/h 73 % 0.00 in /  0 mm 0.0 W/m2 CLR
01:38 -5.4 °F /  -20.8 °C -12.1 °F /  -24.5 °C 30.74 in /  1040.9 hPa WNW 11.5 mph /  18.5 km/h 11.5 mph /  18.5 km/h 72 % 0.00 in /  0 mm 0.0 W/m2 CLR
01:39 -5.4 °F /  -20.8 °C -12.1 °F /  -24.5 °C 30.74 in /  1040.9 hPa WNW 10.4 mph /  16.7 km/h 10.4 mph /  16.7 km/h 72 % 0.00 in /  0 mm 0.0 W/m2 CLR
01:44 -5.5 °F /  -20.8 °C -12.2 °F /  -24.6 °C 30.74 in /  1040.9 hPa WNW 12.7 mph /  20.4 km/h 12.7 mph /  20.4 km/h 72 % 0.00 in /  0 mm 0.0 W/m2 CLR
01:45 -5.5 °F /  -20.8 °C -12.2 °F /  -24.6 °C 30.75 in /  1041.2 hPa WNW 11.5 mph /  18.5 km/h 11.5 mph /  18.5 km/h 72 % 0.00 in /  0 mm 0.0 W/m2 CLR
01:46 -5.5 °F /  -20.8 °C -12.2 °F /  -24.6 °C 30.75 in /  1041.2 hPa West 10.4 mph /  16.7 km/h 10.4 mph /  16.7 km/h 72 % 0.00 in /  0 mm 0.0 W/m2 CLR
01:50 -5.6 °F /  -20.9 °C -12.3 °F /  -24.6 °C 30.75 in /  1041.2 hPa West 13.8 mph /  22.2 km/h 13.8 mph /  22.2 km/h 72 % 0.00 in /  0 mm 0.0 W/m2 CLR
01:51 -5.6 °F /  -20.9 °C -12.3 °F /  -24.6 °C 30.75 in /  1041.2 hPa WNW 11.5 mph /  18.5 km/h 11.5 mph /  18.5 km/h 72 % 0.00 in /  0 mm 0.0 W/m2 CLR
01:55 -5.6 °F /  -20.9 °C -12.3 °F /  -24.6 °C 30.75 in /  1041.2 hPa NW 13.8 mph /  22.2 km/h 13.8 mph /  22.2 km/h 72 % 0.00 in /  0 mm 0.0 W/m2 CLR
02:00 -5.7 °F /  -20.9 °C -12.4 °F /  -24.7 °C 30.75 in /  1041.2 hPa WNW 10.4 mph /  16.7 km/h 10.4 mph /  16.7 km/h 72 % 0.00 in /  0 mm 0.0 W/m2 CLR
02:01 -5.7 °F /  -20.9 °C -12.4 °F /  -24.7 °C 30.75 in /  1041.2 hPa WNW 12.7 mph /  20.4 km/h 12.7 mph /  20.4 km/h 72 % 0.00 in /  0 mm 0.0 W/m2 CLR
02:02 -5.6 °F /  -20.9 °C -12.3 °F /  -24.6 °C 30.75 in /  1041.2 hPa West 11.5 mph /  18.5 km/h 11.5 mph /  18.5 km/h 72 % 0.00 in /  0 mm 0.0 W/m2 CLR
02:12 -5.8 °F /  -21 °C -12.5 °F /  -24.7 °C 30.75 in /  1041.2 hPa WNW 11.5 mph /  18.5 km/h 11.5 mph /  18.5 km/h 72 % 0.00 in /  0 mm 0.0 W/m2 CLR
02:14 -5.8 °F /  -21 °C -12.5 °F /  -24.7 °C 30.75 in /  1041.2 hPa WNW 11.5 mph /  18.5 km/h 11.5 mph /  18.5 km/h 72 % 0.00 in /  0 mm 0.0 W/m2 CLR
02:19 -5.9 °F /  -21.1 °C -12.6 °F /  -24.8 °C 30.75 in /  1041.2 hPa WNW 11.5 mph /  18.5 km/h 11.5 mph /  18.5 km/h 72 % 0.00 in /  0 mm 0.0 W/m2 CLR
02:24 -5.9 °F /  -21.1 °C -12.9 °F /  -24.9 °C 30.75 in /  1041.2 hPa WNW 11.5 mph /  18.5 km/h 11.5 mph /  18.5 km/h 71 % 0.00 in /  0 mm 0.0 W/m2 CLR
02:26 -6.0 °F /  -21.1 °C -13.0 °F /  -25 °C 30.75 in /  1041.2 hPa West 10.4 mph /  16.7 km/h 10.4 mph /  16.7 km/h 71 % 0.00 in /  0 mm 0.0 W/m2 CLR
02:31 -6.1 °F /  -21.2 °C -13.1 °F /  -25.1 °C 30.75 in /  1041.2 hPa West 11.5 mph /  18.5 km/h 11.5 mph /  18.5 km/h 71 % 0.00 in /  0 mm 0.0 W/m2 CLR
02:32 -6.2 °F /  -21.2 °C -13.2 °F /  -25.1 °C 30.75 in /  1041.2 hPa WNW 11.5 mph /  18.5 km/h 11.5 mph /  18.5 km/h 71 % 0.00 in /  0 mm 0.0 W/m2 CLR
02:37 -6.3 °F /  -21.3 °C -13.0 °F /  -25 °C 30.75 in /  1041.2 hPa WSW 11.5 mph /  18.5 km/h 11.5 mph /  18.5 km/h 72 % 0.00 in /  0 mm 0.0 W/m2 CLR
02:40 -6.3 °F /  -21.3 °C -13.0 °F /  -25 °C 30.75 in /  1041.2 hPa WNW 8.1 mph /  13 km/h 8.1 mph /  13 km/h 72 % 0.00 in /  0 mm 0.0 W/m2 CLR
02:42 -6.4 °F /  -21.3 °C -13.1 °F /  -25.1 °C 30.75 in /  1041.2 hPa WNW 11.5 mph /  18.5 km/h 11.5 mph /  18.5 km/h 72 % 0.00 in /  0 mm 0.0 W/m2 CLR
02:45 -6.5 °F /  -21.4 °C -13.2 °F /  -25.1 °C 30.75 in /  1041.2 hPa NW 9.2 mph /  14.8 km/h 9.2 mph /  14.8 km/h 72 % 0.00 in /  0 mm 0.0 W/m2 CLR
02:48 -6.6 °F /  -21.4 °C -13.3 °F /  -25.2 °C 30.75 in /  1041.2 hPa West 11.5 mph /  18.5 km/h 11.5 mph /  18.5 km/h 72 % 0.00 in /  0 mm 0.0 W/m2 CLR
02:50 -6.6 °F /  -21.4 °C -13.3 °F /  -25.2 °C 30.75 in /  1041.2 hPa WNW 14.0 mph /  22.5 km/h 14.0 mph /  22.5 km/h 72 % 0.00 in /  0 mm 0.0 W/m2 CLR
02:54 -6.7 °F /  -21.5 °C -13.1 °F /  -25.1 °C 30.75 in /  1041.2 hPa WNW 13.0 mph /  20.9 km/h 13.0 mph /  20.9 km/h 73 % 0.00 in /  0 mm 0.0 W/m2 CLR
02:55 -6.7 °F /  -21.5 °C -13.1 °F /  -25.1 °C 30.75 in /  1041.2 hPa WNW 13.0 mph /  20.9 km/h 13.0 mph /  20.9 km/h 73 % 0.00 in /  0 mm 0.0 W/m2 CLR
03:00 -6.9 °F /  -21.6 °C -13.3 °F /  -25.2 °C 30.75 in /  1041.2 hPa West 12.7 mph /  20.4 km/h 12.7 mph /  20.4 km/h 73 % 0.00 in /  0 mm 0.0 W/m2 CLR
03:02 -7.0 °F /  -21.7 °C -13.4 °F /  -25.2 °C 30.75 in /  1041.2 hPa WNW 11.5 mph /  18.5 km/h 11.5 mph /  18.5 km/h 73 % 0.00 in /  0 mm 0.0 W/m2 CLR
03:03 -7.0 °F /  -21.7 °C -13.4 °F /  -25.2 °C 30.75 in /  1041.2 hPa West 11.5 mph /  18.5 km/h 11.5 mph /  18.5 km/h 73 % 0.00 in /  0 mm 0.0 W/m2 CLR
03:08 -7.2 °F /  -21.8 °C -13.6 °F /  -25.3 °C 30.75 in /  1041.2 hPa West 11.5 mph /  18.5 km/h 11.5 mph /  18.5 km/h 73 % 0.00 in /  0 mm 0.0 W/m2 CLR
03:11 -7.3 °F /  -21.8 °C -13.7 °F /  -25.4 °C 30.75 in /  1041.2 hPa WNW 11.5 mph /  18.5 km/h 11.5 mph /  18.5 km/h 73 % 0.00 in /  0 mm 0.0 W/m2 CLR
03:14 -7.4 °F /  -21.9 °C -13.8 °F /  -25.4 °C 30.75 in /  1041.2 hPa West 11.5 mph /  18.5 km/h 11.5 mph /  18.5 km/h 73 % 0.00 in /  0 mm 0.0 W/m2 CLR
03:16 -7.5 °F /  -21.9 °C -13.9 °F /  -25.5 °C 30.75 in /  1041.2 hPa WNW 13.8 mph /  22.2 km/h 13.8 mph /  22.2 km/h 73 % 0.00 in /  0 mm 0.0 W/m2 CLR
03:21 -7.5 °F /  -21.9 °C -13.6 °F /  -25.3 °C 30.75 in /  1041.2 hPa WNW 11.5 mph /  18.5 km/h 11.5 mph /  18.5 km/h 74 % 0.00 in /  0 mm 0.0 W/m2 CLR
03:22 -7.5 °F /  -21.9 °C -13.6 °F /  -25.3 °C 30.75 in /  1041.2 hPa West 11.5 mph /  18.5 km/h 11.5 mph /  18.5 km/h 74 % 0.00 in /  0 mm 0.0 W/m2 CLR
03:27 -7.7 °F /  -22.1 °C -14.1 °F /  -25.6 °C 30.75 in /  1041.2 hPa WNW 5.0 mph /  8 km/h 5.0 mph /  8 km/h 73 % 0.00 in /  0 mm 0.0 W/m2 CLR
03:30 -7.8 °F /  -22.1 °C -14.2 °F /  -25.7 °C 30.75 in /  1041.2 hPa WNW 8.1 mph /  13 km/h 8.1 mph /  13 km/h 73 % 0.00 in /  0 mm 0.0 W/m2 CLR
03:32 -7.9 °F /  -22.2 °C -14.0 °F /  -25.6 °C 30.75 in /  1041.2 hPa WNW 9.2 mph /  14.8 km/h 9.2 mph /  14.8 km/h 74 % 0.00 in /  0 mm 0.0 W/m2 CLR
03:37 -7.9 °F /  -22.2 °C -14.3 °F /  -25.7 °C 30.75 in /  1041.2 hPa WNW 11.5 mph /  18.5 km/h 11.5 mph /  18.5 km/h 73 % 0.00 in /  0 mm 0.0 W/m2 CLR
03:40 -7.9 °F /  -22.2 °C -14.3 °F /  -25.7 °C 30.75 in /  1041.2 hPa WNW 11.5 mph /  18.5 km/h 11.5 mph /  18.5 km/h 73 % 0.00 in /  0 mm 0.0 W/m2 CLR
03:42 -7.8 °F /  -22.1 °C -14.2 °F /  -25.7 °C 30.75 in /  1041.2 hPa WNW 11.5 mph /  18.5 km/h 11.5 mph /  18.5 km/h 73 % 0.00 in /  0 mm 0.0 W/m2 CLR
03:45 -7.7 °F /  -22.1 °C -13.8 °F /  -25.4 °C 30.75 in /  1041.2 hPa West 12.7 mph /  20.4 km/h 12.7 mph /  20.4 km/h 74 % 0.00 in /  0 mm 0.0 W/m2 CLR
03:50 -7.7 °F /  -22.1 °C -13.8 °F /  -25.4 °C 30.75 in /  1041.2 hPa WNW 10.4 mph /  16.7 km/h 10.4 mph /  16.7 km/h 74 % 0.00 in /  0 mm 0.0 W/m2 CLR
03:51 -7.8 °F /  -22.1 °C -13.9 °F /  -25.5 °C 30.75 in /  1041.2 hPa West 8.0 mph /  12.9 km/h 8.0 mph /  12.9 km/h 74 % 0.00 in /  0 mm 0.0 W/m2 CLR
03:56 -7.9 °F /  -22.2 °C -14.0 °F /  -25.6 °C 30.75 in /  1041.2 hPa NW 9.2 mph /  14.8 km/h 9.2 mph /  14.8 km/h 74 % 0.00 in /  0 mm 0.0 W/m2 CLR
03:57 -7.9 °F /  -22.2 °C -14.0 °F /  -25.6 °C 30.75 in /  1041.2 hPa WNW 10.0 mph /  16.1 km/h 10.0 mph /  16.1 km/h 74 % 0.00 in /  0 mm 0.0 W/m2 CLR
04:02 -7.9 °F /  -22.2 °C -14.0 °F /  -25.6 °C 30.75 in /  1041.2 hPa WNW 10.4 mph /  16.7 km/h 10.4 mph /  16.7 km/h 74 % 0.00 in /  0 mm 0.0 W/m2 CLR
04:03 -7.9 °F /  -22.2 °C -14.0 °F /  -25.6 °C 30.75 in /  1041.2 hPa NW 12.0 mph /  19.3 km/h 12.0 mph /  19.3 km/h 74 % 0.00 in /  0 mm 0.0 W/m2 CLR
04:05 -8.0 °F /  -22.2 °C -14.1 °F /  -25.6 °C 30.75 in /  1041.2 hPa WNW 9.2 mph /  14.8 km/h 9.2 mph /  14.8 km/h 74 % 0.00 in /  0 mm 0.0 W/m2 CLR
04:09 -8.0 °F /  -22.2 °C -14.1 °F /  -25.6 °C 30.75 in /  1041.2 hPa WNW 10.4 mph /  16.7 km/h 10.4 mph /  16.7 km/h 74 % 0.00 in /  0 mm 0.0 W/m2 CLR
04:11 -8.0 °F /  -22.2 °C -14.1 °F /  -25.6 °C 30.75 in /  1041.2 hPa NW 11.5 mph /  18.5 km/h 11.5 mph /  18.5 km/h 74 % 0.00 in /  0 mm 0.0 W/m2 CLR
04:16 -8.2 °F /  -22.3 °C -14.0 °F /  -25.6 °C 30.75 in /  1041.2 hPa WNW 13.8 mph /  22.2 km/h 13.8 mph /  22.2 km/h 75 % 0.00 in /  0 mm 0.0 W/m2 CLR
04:17 -8.2 °F /  -22.3 °C -14.0 °F /  -25.6 °C 30.76 in /  1041.5 hPa WNW 10.4 mph /  16.7 km/h 10.4 mph /  16.7 km/h 75 % 0.00 in /  0 mm 0.0 W/m2 CLR
04:21 -8.2 °F /  -22.3 °C -14.0 °F /  -25.6 °C 30.76 in /  1041.5 hPa West 8.1 mph /  13 km/h 8.1 mph /  13 km/h 75 % 0.00 in /  0 mm 0.0 W/m2 CLR
04:26 -8.3 °F /  -22.4 °C -14.1 °F /  -25.6 °C 30.76 in /  1041.5 hPa WNW 10.4 mph /  16.7 km/h 10.4 mph /  16.7 km/h 75 % 0.00 in /  0 mm 0.0 W/m2 CLR
04:28 -8.4 °F /  -22.4 °C -14.2 °F /  -25.7 °C 30.76 in /  1041.5 hPa WNW 10.4 mph /  16.7 km/h 10.4 mph /  16.7 km/h 75 % 0.00 in /  0 mm 0.0 W/m2 CLR
04:29 -8.4 °F /  -22.4 °C -14.2 °F /  -25.7 °C 30.76 in /  1041.5 hPa WNW 10.4 mph /  16.7 km/h 10.4 mph /  16.7 km/h 75 % 0.00 in /  0 mm 0.0 W/m2 CLR
04:34 -8.5 °F /  -22.5 °C -14.3 °F /  -25.7 °C 30.76 in /  1041.5 hPa WNW 10.4 mph /  16.7 km/h 10.4 mph /  16.7 km/h 75 % 0.00 in /  0 mm 0.0 W/m2 CLR
04:37 -8.5 °F /  -22.5 °C -14.3 °F /  -25.7 °C 30.76 in /  1041.5 hPa NW 11.5 mph /  18.5 km/h 11.5 mph /  18.5 km/h 75 % 0.00 in /  0 mm 0.0 W/m2 CLR
04:38 -8.5 °F /  -22.5 °C -14.3 °F /  -25.7 °C 30.76 in /  1041.5 hPa WNW 8.1 mph /  13 km/h 8.1 mph /  13 km/h 75 % 0.00 in /  0 mm 0.0 W/m2 CLR
04:43 -8.6 °F /  -22.6 °C -14.4 °F /  -25.8 °C 30.76 in /  1041.5 hPa WNW 7.0 mph /  11.3 km/h 7.0 mph /  11.3 km/h 75 % 0.00 in /  0 mm 0.0 W/m2 CLR
04:44 -8.6 °F /  -22.6 °C -14.4 °F /  -25.8 °C 30.76 in /  1041.5 hPa WNW 11.5 mph /  18.5 km/h 11.5 mph /  18.5 km/h 75 % 0.00 in /  0 mm 0.0 W/m2 CLR
04:49 -8.7 °F /  -22.6 °C -14.5 °F /  -25.8 °C 30.76 in /  1041.5 hPa WNW 6.9 mph /  11.1 km/h 6.9 mph /  11.1 km/h 75 % 0.00 in /  0 mm 0.0 W/m2 CLR
04:54 -8.8 °F /  -22.7 °C -14.6 °F /  -25.9 °C 30.76 in /  1041.5 hPa WNW 9.2 mph /  14.8 km/h 9.2 mph /  14.8 km/h 75 % 0.00 in /  0 mm 0.0 W/m2 CLR
04:59 -9.0 °F /  -22.8 °C -14.8 °F /  -26 °C 30.76 in /  1041.5 hPa WNW 10.4 mph /  16.7 km/h 10.4 mph /  16.7 km/h 75 % 0.00 in /  0 mm 0.0 W/m2 CLR
05:00 -8.9 °F /  -22.7 °C -14.7 °F /  -25.9 °C 30.76 in /  1041.5 hPa WNW 10.4 mph /  16.7 km/h 10.4 mph /  16.7 km/h 75 % 0.00 in /  0 mm 0.0 W/m2 CLR
05:05 -9.0 °F /  -22.8 °C -14.5 °F /  -25.8 °C 30.76 in /  1041.5 hPa WNW 12.7 mph /  20.4 km/h 12.7 mph /  20.4 km/h 76 % 0.00 in /  0 mm 0.0 W/m2 CLR
05:07 -9.0 °F /  -22.8 °C -14.5 °F /  -25.8 °C 30.76 in /  1041.5 hPa NW 11.5 mph /  18.5 km/h 11.5 mph /  18.5 km/h 76 % 0.00 in /  0 mm 0.0 W/m2 CLR
05:12 -9.1 °F /  -22.8 °C -14.6 °F /  -25.9 °C 30.76 in /  1041.5 hPa WNW 9.2 mph /  14.8 km/h 9.2 mph /  14.8 km/h 76 % 0.00 in /  0 mm 0.0 W/m2 CLR
05:14 -9.2 °F /  -22.9 °C -14.7 °F /  -25.9 °C 30.76 in /  1041.5 hPa NW 11.5 mph /  18.5 km/h 11.5 mph /  18.5 km/h 76 % 0.00 in /  0 mm 0.0 W/m2 CLR
05:15 -9.2 °F /  -22.9 °C -14.7 °F /  -25.9 °C 30.76 in /  1041.5 hPa NW 9.2 mph /  14.8 km/h 9.2 mph /  14.8 km/h 76 % 0.00 in /  0 mm 0.0 W/m2 CLR
05:19 -9.3 °F /  -22.9 °C -14.8 °F /  -26 °C 30.76 in /  1041.5 hPa WNW 9.2 mph /  14.8 km/h 9.2 mph /  14.8 km/h 76 % 0.00 in /  0 mm 0.0 W/m2 CLR
05:21 -9.3 °F /  -22.9 °C -14.8 °F /  -26 °C 30.76 in /  1041.5 hPa WNW 6.9 mph /  11.1 km/h 6.9 mph /  11.1 km/h 76 % 0.00 in /  0 mm 0.0 W/m2 CLR
05:25 -9.3 °F /  -22.9 °C -14.8 °F /  -26 °C 30.77 in /  1041.9 hPa WNW 10.4 mph /  16.7 km/h 10.4 mph /  16.7 km/h 76 % 0.00 in /  0 mm 0.0 W/m2 CLR
05:30 -9.4 °F /  -23 °C -14.9 °F /  -26.1 °C 30.77 in /  1041.9 hPa WNW 8.1 mph /  13 km/h 8.1 mph /  13 km/h 76 % 0.00 in /  0 mm 0.0 W/m2 CLR
05:31 -9.3 °F /  -22.9 °C -14.8 °F /  -26 °C 30.77 in /  1041.9 hPa WNW 9.2 mph /  14.8 km/h 9.2 mph /  14.8 km/h 76 % 0.00 in /  0 mm 0.0 W/m2 CLR
05:36 -9.4 °F /  -23 °C -14.9 °F /  -26.1 °C 30.77 in /  1041.9 hPa WNW 8.1 mph /  13 km/h 8.1 mph /  13 km/h 76 % 0.00 in /  0 mm 0.0 W/m2 CLR
05:37 -9.4 °F /  -23 °C -14.9 °F /  -26.1 °C 30.77 in /  1041.9 hPa WNW 8.1 mph /  13 km/h 8.1 mph /  13 km/h 76 % 0.00 in /  0 mm 0.0 W/m2 CLR
05:42 -9.4 °F /  -23 °C -14.9 °F /  -26.1 °C 30.77 in /  1041.9 hPa WNW 10.4 mph /  16.7 km/h 10.4 mph /  16.7 km/h 76 % 0.00 in /  0 mm 0.0 W/m2 CLR
05:44 -9.4 °F /  -23 °C -14.9 °F /  -26.1 °C 30.77 in /  1041.9 hPa WNW 10.4 mph /  16.7 km/h 10.4 mph /  16.7 km/h 76 % 0.00 in /  0 mm 0.0 W/m2 CLR
05:49 -9.4 °F /  -23 °C -14.9 °F /  -26.1 °C 30.77 in /  1041.9 hPa WNW 8.0 mph /  12.9 km/h 8.0 mph /  12.9 km/h 76 % 0.00 in /  0 mm 0.0 W/m2 CLR
05:50 -9.4 °F /  -23 °C -14.9 °F /  -26.1 °C 30.77 in /  1041.9 hPa WNW 8.0 mph /  12.9 km/h 8.0 mph /  12.9 km/h 76 % 0.00 in /  0 mm 0.0 W/m2 CLR
05:51 -9.5 °F /  -23.1 °C -15.0 °F /  -26.1 °C 30.77 in /  1041.9 hPa West 8.1 mph /  13 km/h 8.1 mph /  13 km/h 76 % 0.00 in /  0 mm 0.0 W/m2 CLR
05:55 -9.5 °F /  -23.1 °C -15.0 °F /  -26.1 °C 30.77 in /  1041.9 hPa WNW 8.1 mph /  13 km/h 8.1 mph /  13 km/h 76 % 0.00 in /  0 mm 0.0 W/m2 CLR
06:00 -9.5 °F /  -23.1 °C -15.0 °F /  -26.1 °C 30.77 in /  1041.9 hPa West 10.4 mph /  16.7 km/h 10.4 mph /  16.7 km/h 76 % 0.00 in /  0 mm 0.0 W/m2 CLR
06:02 -9.5 °F /  -23.1 °C -15.0 °F /  -26.1 °C 30.77 in /  1041.9 hPa WNW 9.2 mph /  14.8 km/h 9.2 mph /  14.8 km/h 76 % 0.00 in /  0 mm 0.0 W/m2 CLR
06:07 -9.6 °F /  -23.1 °C -15.1 °F /  -26.2 °C 30.77 in /  1041.9 hPa WNW 11.5 mph /  18.5 km/h 11.5 mph /  18.5 km/h 76 % 0.00 in /  0 mm 0.0 W/m2 CLR
06:11 -9.6 °F /  -23.1 °C -15.1 °F /  -26.2 °C 30.77 in /  1041.9 hPa West 8.1 mph /  13 km/h 8.1 mph /  13 km/h 76 % 0.00 in /  0 mm 0.0 W/m2 CLR
06:15 -9.7 °F /  -23.2 °C -15.2 °F /  -26.2 °C 30.77 in /  1041.9 hPa WNW 8.1 mph /  13 km/h 8.1 mph /  13 km/h 76 % 0.00 in /  0 mm 0.0 W/m2 CLR
06:20 -9.8 °F /  -23.2 °C -15.3 °F /  -26.3 °C 30.77 in /  1041.9 hPa West 9.2 mph /  14.8 km/h 9.2 mph /  14.8 km/h 76 % 0.00 in /  0 mm 0.0 W/m2 CLR
06:24 -9.8 °F /  -23.2 °C -15.3 °F /  -26.3 °C 30.77 in /  1041.9 hPa WNW 9.2 mph /  14.8 km/h 9.2 mph /  14.8 km/h 76 % 0.00 in /  0 mm 0.0 W/m2 CLR
06:25 -9.8 °F /  -23.2 °C -15.3 °F /  -26.3 °C 30.77 in /  1041.9 hPa NW 9.2 mph /  14.8 km/h 9.2 mph /  14.8 km/h 76 % 0.00 in /  0 mm 0.0 W/m2 CLR
06:30 -9.9 °F /  -23.3 °C -15.4 °F /  -26.3 °C 30.78 in /  1042.2 hPa WNW 6.9 mph /  11.1 km/h 6.9 mph /  11.1 km/h 76 % 0.00 in /  0 mm 0.0 W/m2 CLR
06:31 -9.9 °F /  -23.3 °C -15.4 °F /  -26.3 °C 30.78 in /  1042.2 hPa WNW 6.9 mph /  11.1 km/h 6.9 mph /  11.1 km/h 76 % 0.00 in /  0 mm 0.0 W/m2 CLR
06:36 -10.2 °F /  -23.4 °C -15.7 °F /  -26.5 °C 30.78 in /  1042.2 hPa West 8.1 mph /  13 km/h 8.1 mph /  13 km/h 76 % 0.00 in /  0 mm 0.0 W/m2 CLR
06:37 -10.2 °F /  -23.4 °C -15.7 °F /  -26.5 °C 30.78 in /  1042.2 hPa West 10.4 mph /  16.7 km/h 10.4 mph /  16.7 km/h 76 % 0.00 in /  0 mm 0.0 W/m2 CLR
06:38 -10.2 °F /  -23.4 °C -15.7 °F /  -26.5 °C 30.78 in /  1042.2 hPa WNW 10.4 mph /  16.7 km/h 10.4 mph /  16.7 km/h 76 % 0.00 in /  0 mm 0.0 W/m2 CLR
06:43 -10.5 °F /  -23.6 °C -16.0 °F /  -26.7 °C 30.78 in /  1042.2 hPa WNW 10.4 mph /  16.7 km/h 10.4 mph /  16.7 km/h 76 % 0.00 in /  0 mm 0.0 W/m2 CLR
06:44 -10.6 °F /  -23.7 °C -16.1 °F /  -26.7 °C 30.78 in /  1042.2 hPa WNW 9.2 mph /  14.8 km/h 9.2 mph /  14.8 km/h 76 % 0.00 in /  0 mm 0.0 W/m2 CLR
06:46 -10.6 °F /  -23.7 °C -16.1 °F /  -26.7 °C 30.78 in /  1042.2 hPa WNW 5.8 mph /  9.3 km/h 5.8 mph /  9.3 km/h 76 % 0.00 in /  0 mm 0.0 W/m2 CLR
06:49 -10.7 °F /  -23.7 °C -16.2 °F /  -26.8 °C 30.78 in /  1042.2 hPa WNW 10.4 mph /  16.7 km/h 10.4 mph /  16.7 km/h 76 % 0.00 in /  0 mm 0.0 W/m2 CLR
06:54 -10.9 °F /  -23.8 °C -16.4 °F /  -26.9 °C 30.78 in /  1042.2 hPa WNW 5.0 mph /  8 km/h 5.0 mph /  8 km/h 76 % 0.00 in /  0 mm 0.0 W/m2 CLR
06:55 -10.9 °F /  -23.8 °C -16.4 °F /  -26.9 °C 30.78 in /  1042.2 hPa WNW 4.6 mph /  7.4 km/h 4.8 mph /  7.7 km/h 76 % 0.00 in /  0 mm 0.0 W/m2 CLR
06:59 -11.1 °F /  -23.9 °C -16.6 °F /  -27 °C 30.78 in /  1042.2 hPa WNW 8.1 mph /  13 km/h 8.1 mph /  13 km/h 76 % 0.00 in /  0 mm 0.0 W/m2 CLR
07:01 -11.1 °F /  -23.9 °C -16.6 °F /  -27 °C 30.78 in /  1042.2 hPa WNW 7.0 mph /  11.3 km/h 7.0 mph /  11.3 km/h 76 % 0.00 in /  0 mm 0.0 W/m2 CLR
07:04 -11.2 °F /  -24 °C -16.7 °F /  -27.1 °C 30.78 in /  1042.2 hPa WNW 6.9 mph /  11.1 km/h 6.9 mph /  11.1 km/h 76 % 0.00 in /  0 mm 0.0 W/m2 CLR
07:07 -11.2 °F /  -24 °C -16.7 °F /  -27.1 °C 30.78 in /  1042.2 hPa WNW 8.1 mph /  13 km/h 8.1 mph /  13 km/h 76 % 0.00 in /  0 mm 0.0 W/m2 CLR
07:09 -11.2 °F /  -24 °C -16.4 °F /  -26.9 °C 30.78 in /  1042.2 hPa West 9.2 mph /  14.8 km/h 9.2 mph /  14.8 km/h 77 % 0.00 in /  0 mm 0.0 W/m2 CLR
07:14 -11.2 °F /  -24 °C -16.4 °F /  -26.9 °C 30.79 in /  1042.5 hPa West 3.5 mph /  5.6 km/h 3.5 mph /  5.6 km/h 77 % 0.00 in /  0 mm 0.0 W/m2 CLR
07:19 -11.2 °F /  -24 °C -16.4 °F /  -26.9 °C 30.78 in /  1042.2 hPa West 8.1 mph /  13 km/h 8.1 mph /  13 km/h 77 % 0.00 in /  0 mm 5.0 W/m2 CLR
07:20 -11.2 °F /  -24 °C -16.4 °F /  -26.9 °C 30.78 in /  1042.2 hPa West 8.1 mph /  13 km/h 8.1 mph /  13 km/h 77 % 0.00 in /  0 mm 7.0 W/m2 CLR
07:22 -9.9 °F /  -23.3 °C -15.1 °F /  -26.2 °C 30.78 in /  1042.2 hPa WNW 11.5 mph /  18.5 km/h 11.5 mph /  18.5 km/h 77 % 0.00 in /  0 mm 7.0 W/m2 CLR
07:25 -8.6 °F /  -22.6 °C -14.9 °F /  -26.1 °C 30.79 in /  1042.5 hPa WSW 6.9 mph /  11.1 km/h 6.9 mph /  11.1 km/h 73 % 0.00 in /  0 mm 9.0 W/m2 CLR
07:30 -10.5 °F /  -23.6 °C -16.8 °F /  -27.1 °C 30.79 in /  1042.5 hPa West 6.9 mph /  11.1 km/h 6.9 mph /  11.1 km/h 73 % 0.00 in /  0 mm 11.0 W/m2 CLR
07:34 -10.9 °F /  -23.8 °C -16.9 °F /  -27.2 °C 30.79 in /  1042.5 hPa West 10.4 mph /  16.7 km/h 10.4 mph /  16.7 km/h 74 % 0.00 in /  0 mm 12.0 W/m2 CLR
07:39 -11.2 °F /  -24 °C -16.9 °F /  -27.2 °C 30.79 in /  1042.5 hPa West 8.1 mph /  13 km/h 8.1 mph /  13 km/h 75 % 0.00 in /  0 mm 16.0 W/m2 FEW
07:40 -11.2 °F /  -24 °C -16.7 °F /  -27.1 °C 30.79 in /  1042.5 hPa West 8.1 mph /  13 km/h 8.1 mph /  13 km/h 76 % 0.00 in /  0 mm 18.0 W/m2 FEW
07:45 -11.3 °F /  -24.1 °C -16.8 °F /  -27.1 °C 30.79 in /  1042.5 hPa West 8.1 mph /  13 km/h 8.1 mph /  13 km/h 76 % 0.00 in /  0 mm 25.0 W/m2 FEW
07:50 -11.3 °F /  -24.1 °C -16.8 °F /  -27.1 °C 30.79 in /  1042.5 hPa WNW 8.1 mph /  13 km/h 8.1 mph /  13 km/h 76 % 0.00 in /  0 mm 33.0 W/m2 CLR
07:55 -11.2 °F /  -24 °C -16.7 °F /  -27.1 °C 30.79 in /  1042.5 hPa WNW 8.1 mph /  13 km/h 8.1 mph /  13 km/h 76 % 0.00 in /  0 mm 44.0 W/m2 CLR
08:00 -11.1 °F /  -23.9 °C -16.6 °F /  -27 °C 30.79 in /  1042.5 hPa WNW 5.8 mph /  9.3 km/h 5.8 mph /  9.3 km/h 76 % 0.00 in /  0 mm 53.0 W/m2 CLR
08:03 -11.0 °F /  -23.9 °C -16.5 °F /  -26.9 °C 30.80 in /  1042.9 hPa NW 8.1 mph /  13 km/h 8.1 mph /  13 km/h 76 % 0.00 in /  0 mm 63.0 W/m2 CLR
08:08 -11.0 °F /  -23.9 °C -16.5 °F /  -26.9 °C 30.80 in /  1042.9 hPa WSW 6.9 mph /  11.1 km/h 6.9 mph /  11.1 km/h 76 % 0.00 in /  0 mm 72.0 W/m2 CLR
08:09 -11.0 °F /  -23.9 °C -16.5 °F /  -26.9 °C 30.80 in /  1042.9 hPa West 10.4 mph /  16.7 km/h 10.4 mph /  16.7 km/h 76 % 0.00 in /  0 mm 77.0 W/m2 CLR
08:14 -10.9 °F /  -23.8 °C -16.4 °F /  -26.9 °C 30.80 in /  1042.9 hPa West 9.2 mph /  14.8 km/h 9.2 mph /  14.8 km/h 76 % 0.00 in /  0 mm 91.0 W/m2 CLR
08:15 -10.9 °F /  -23.8 °C -16.4 °F /  -26.9 °C 30.80 in /  1042.9 hPa West 11.5 mph /  18.5 km/h 11.5 mph /  18.5 km/h 76 % 0.00 in /  0 mm 93.0 W/m2 CLR
08:20 -10.8 °F /  -23.8 °C -16.3 °F /  -26.8 °C 30.80 in /  1042.9 hPa WSW 10.4 mph /  16.7 km/h 10.4 mph /  16.7 km/h 76 % 0.00 in /  0 mm 107.0 W/m2 CLR
08:21 -10.8 °F /  -23.8 °C -16.3 °F /  -26.8 °C 30.80 in /  1042.9 hPa West 11.5 mph /  18.5 km/h 11.5 mph /  18.5 km/h 76 % 0.00 in /  0 mm 111.0 W/m2 CLR
08:25 -10.7 °F /  -23.7 °C -16.2 °F /  -26.8 °C 30.80 in /  1042.9 hPa West 8.1 mph /  13 km/h 8.1 mph /  13 km/h 76 % 0.00 in /  0 mm 123.0 W/m2 CLR
08:30 -10.6 °F /  -23.7 °C -16.1 °F /  -26.7 °C 30.80 in /  1042.9 hPa West 11.5 mph /  18.5 km/h 11.5 mph /  18.5 km/h 76 % 0.00 in /  0 mm 137.0 W/m2 CLR
08:31 -10.6 °F /  -23.7 °C -16.1 °F /  -26.7 °C 30.80 in /  1042.9 hPa West 11.5 mph /  18.5 km/h 11.5 mph /  18.5 km/h 76 % 0.00 in /  0 mm 139.0 W/m2 CLR
08:36 -10.4 °F /  -23.6 °C -15.9 °F /  -26.6 °C 30.80 in /  1042.9 hPa West 9.2 mph /  14.8 km/h 9.2 mph /  14.8 km/h 76 % 0.00 in /  0 mm 158.0 W/m2 CLR
08:38 -10.4 °F /  -23.6 °C -15.9 °F /  -26.6 °C 30.80 in /  1042.9 hPa West 10.4 mph /  16.7 km/h 10.4 mph /  16.7 km/h 76 % 0.00 in /  0 mm 163.0 W/m2 CLR
08:41 -10.3 °F /  -23.5 °C -15.8 °F /  -26.6 °C 30.80 in /  1042.9 hPa West 10.4 mph /  16.7 km/h 10.4 mph /  16.7 km/h 76 % 0.00 in /  0 mm 171.0 W/m2 CLR
08:46 -10.2 °F /  -23.4 °C -15.7 °F /  -26.5 °C 30.81 in /  1043.2 hPa West 9.2 mph /  14.8 km/h 9.2 mph /  14.8 km/h 76 % 0.00 in /  0 mm 186.0 W/m2 CLR
08:51 -9.9 °F /  -23.3 °C -15.7 °F /  -26.5 °C 30.81 in /  1043.2 hPa WNW 11.5 mph /  18.5 km/h 11.5 mph /  18.5 km/h 75 % 0.00 in /  0 mm 206.0 W/m2 CLR
08:53 -9.9 °F /  -23.3 °C -15.7 °F /  -26.5 °C 30.81 in /  1043.2 hPa WNW 10.4 mph /  16.7 km/h 10.4 mph /  16.7 km/h 75 % 0.00 in /  0 mm 209.0 W/m2 CLR
08:58 -9.8 °F /  -23.2 °C -15.6 °F /  -26.4 °C 30.81 in /  1043.2 hPa WNW 12.7 mph /  20.4 km/h 12.7 mph /  20.4 km/h 75 % 0.00 in /  0 mm 223.0 W/m2 CLR
09:00 -9.7 °F /  -23.2 °C -15.5 °F /  -26.4 °C 30.81 in /  1043.2 hPa West 9.0 mph /  14.5 km/h 9.0 mph /  14.5 km/h 75 % 0.00 in /  0 mm 232.0 W/m2 CLR
09:03 -9.5 °F /  -23.1 °C -15.3 °F /  -26.3 °C 30.81 in /  1043.2 hPa WNW 11.5 mph /  18.5 km/h 11.5 mph /  18.5 km/h 75 % 0.00 in /  0 mm 239.0 W/m2 CLR
09:08 -9.2 °F /  -22.9 °C -15.0 °F /  -26.1 °C 30.81 in /  1043.2 hPa West 8.1 mph /  13 km/h 8.1 mph /  13 km/h 75 % 0.00 in /  0 mm 253.0 W/m2 CLR
09:13 -9.0 °F /  -22.8 °C -15.0 °F /  -26.1 °C 30.81 in /  1043.2 hPa West 10.4 mph /  16.7 km/h 10.4 mph /  16.7 km/h 74 % 0.00 in /  0 mm 267.0 W/m2 CLR
09:18 -8.9 °F /  -22.7 °C -15.0 °F /  -26.1 °C 30.81 in /  1043.2 hPa WNW 11.5 mph /  18.5 km/h 11.5 mph /  18.5 km/h 74 % 0.00 in /  0 mm 279.0 W/m2 CLR
09:19 -8.8 °F /  -22.7 °C -14.9 °F /  -26.1 °C 30.81 in /  1043.2 hPa WNW 11.5 mph /  18.5 km/h 11.5 mph /  18.5 km/h 74 % 0.00 in /  0 mm 279.0 W/m2 CLR
09:24 -8.6 °F /  -22.6 °C -14.7 °F /  -25.9 °C 30.81 in /  1043.2 hPa West 10.4 mph /  16.7 km/h 10.4 mph /  16.7 km/h 74 % 0.00 in /  0 mm 292.0 W/m2 CLR
09:29 -8.4 °F /  -22.4 °C -14.7 °F /  -25.9 °C 30.82 in /  1043.6 hPa West 9.2 mph /  14.8 km/h 9.2 mph /  14.8 km/h 73 % 0.00 in /  0 mm 302.0 W/m2 CLR
09:30 -8.4 °F /  -22.4 °C -14.7 °F /  -25.9 °C 30.81 in /  1043.2 hPa WNW 10.0 mph /  16.1 km/h 10.0 mph /  16.1 km/h 73 % 0.00 in /  0 mm 306.0 W/m2 CLR
09:35 -8.1 °F /  -22.3 °C -14.4 °F /  -25.8 °C 30.82 in /  1043.6 hPa West 5.8 mph /  9.3 km/h 5.8 mph /  9.3 km/h 73 % 0.00 in /  0 mm 315.0 W/m2 CLR
09:40 -8.0 °F /  -22.2 °C -14.3 °F /  -25.7 °C 30.82 in /  1043.6 hPa West 10.4 mph /  16.7 km/h 10.4 mph /  16.7 km/h 73 % 0.00 in /  0 mm 325.0 W/m2 CLR
09:41 -8.0 °F /  -22.2 °C -14.3 °F /  -25.7 °C 30.82 in /  1043.6 hPa WNW 10.4 mph /  16.7 km/h 10.4 mph /  16.7 km/h 73 % 0.00 in /  0 mm 327.0 W/m2 CLR
09:46 -7.9 °F /  -22.2 °C -14.3 °F /  -25.7 °C 30.82 in /  1043.6 hPa WNW 8.1 mph /  13 km/h 8.1 mph /  13 km/h 73 % 0.00 in /  0 mm 334.0 W/m2 CLR
09:47 -7.8 °F /  -22.1 °C -14.2 °F /  -25.7 °C 30.82 in /  1043.6 hPa WNW 11.5 mph /  18.5 km/h 11.5 mph /  18.5 km/h 73 % 0.00 in /  0 mm 338.0 W/m2 CLR
09:52 -7.7 °F /  -22.1 °C -14.3 °F /  -25.7 °C 30.82 in /  1043.6 hPa WNW 10.4 mph /  16.7 km/h 10.4 mph /  16.7 km/h 72 % 0.00 in /  0 mm 346.0 W/m2 CLR
09:53 -7.7 °F /  -22.1 °C -14.3 °F /  -25.7 °C 30.82 in /  1043.6 hPa WNW 10.4 mph /  16.7 km/h 10.4 mph /  16.7 km/h 72 % 0.00 in /  0 mm 346.0 W/m2 CLR
09:54 -7.6 °F /  -22 °C -14.0 °F /  -25.6 °C 30.82 in /  1043.6 hPa NW 11.5 mph /  18.5 km/h 11.5 mph /  18.5 km/h 73 % 0.00 in /  0 mm 352.0 W/m2 CLR
09:59 -7.4 °F /  -21.9 °C -13.8 °F /  -25.4 °C 30.82 in /  1043.6 hPa NW 8.1 mph /  13 km/h 8.1 mph /  13 km/h 73 % 0.00 in /  0 mm 360.0 W/m2 CLR
10:04 -7.0 °F /  -21.7 °C -13.4 °F /  -25.2 °C 30.82 in /  1043.6 hPa West 9.2 mph /  14.8 km/h 9.2 mph /  14.8 km/h 73 % 0.00 in /  0 mm 367.0 W/m2 CLR
10:05 -6.9 °F /  -21.6 °C -13.3 °F /  -25.2 °C 30.82 in /  1043.6 hPa WNW 9.2 mph /  14.8 km/h 9.2 mph /  14.8 km/h 73 % 0.00 in /  0 mm 369.0 W/m2 CLR
10:10 -6.8 °F /  -21.6 °C -13.5 °F /  -25.3 °C 30.82 in /  1043.6 hPa WNW 11.5 mph /  18.5 km/h 11.5 mph /  18.5 km/h 72 % 0.00 in /  0 mm 378.0 W/m2 CLR
10:12 -6.7 °F /  -21.5 °C -13.4 °F /  -25.2 °C 30.82 in /  1043.6 hPa West 6.9 mph /  11.1 km/h 6.9 mph /  11.1 km/h 72 % 0.00 in /  0 mm 381.0 W/m2 CLR
10:17 -6.5 °F /  -21.4 °C -13.2 °F /  -25.1 °C 30.82 in /  1043.6 hPa WNW 4.6 mph /  7.4 km/h 4.6 mph /  7.4 km/h 72 % 0.00 in /  0 mm 388.0 W/m2 CLR
10:18 -6.4 °F /  -21.3 °C -13.1 °F /  -25.1 °C 30.82 in /  1043.6 hPa WNW 8.0 mph /  12.9 km/h 8.0 mph /  12.9 km/h 72 % 0.00 in /  0 mm 390.0 W/m2 CLR
10:21 -6.4 °F /  -21.3 °C -13.4 °F /  -25.2 °C 30.82 in /  1043.6 hPa WNW 10.4 mph /  16.7 km/h 10.4 mph /  16.7 km/h 71 % 0.00 in /  0 mm 396.0 W/m2 CLR
10:25 -6.2 °F /  -21.2 °C -13.2 °F /  -25.1 °C 30.82 in /  1043.6 hPa WNW 9.2 mph /  14.8 km/h 9.2 mph /  14.8 km/h 71 % 0.00 in /  0 mm 401.0 W/m2 CLR
10:28 -6.1 °F /  -21.2 °C -13.1 °F /  -25.1 °C 30.82 in /  1043.6 hPa WNW 5.8 mph /  9.3 km/h 5.8 mph /  9.3 km/h 71 % 0.00 in /  0 mm 406.0 W/m2 CLR
10:33 -5.8 °F /  -21 °C -12.8 °F /  -24.9 °C 30.82 in /  1043.6 hPa NW 8.1 mph /  13 km/h 8.1 mph /  13 km/h 71 % 0.00 in /  0 mm 413.0 W/m2 CLR
10:34 -5.8 °F /  -21 °C -12.8 °F /  -24.9 °C 30.82 in /  1043.6 hPa WNW 10.4 mph /  16.7 km/h 10.4 mph /  16.7 km/h 71 % 0.00 in /  0 mm 411.0 W/m2 CLR
10:35 -5.8 °F /  -21 °C -12.8 °F /  -24.9 °C 30.82 in /  1043.6 hPa WNW 10.4 mph /  16.7 km/h 10.4 mph /  16.7 km/h 71 % 0.00 in /  0 mm 417.0 W/m2 CLR
10:39 -5.6 °F /  -20.9 °C -12.9 °F /  -24.9 °C 30.82 in /  1043.6 hPa WNW 11.5 mph /  18.5 km/h 11.5 mph /  18.5 km/h 70 % 0.00 in /  0 mm 420.0 W/m2 CLR
10:40 -5.7 °F /  -20.9 °C -13.0 °F /  -25 °C 30.82 in /  1043.6 hPa WNW 11.5 mph /  18.5 km/h 11.5 mph /  18.5 km/h 70 % 0.00 in /  0 mm 420.0 W/m2 CLR
10:42 -5.6 °F /  -20.9 °C -12.9 °F /  -24.9 °C 30.82 in /  1043.6 hPa SW 11.5 mph /  18.5 km/h 11.5 mph /  18.5 km/h 70 % 0.00 in /  0 mm 424.0 W/m2 CLR
10:46 -5.6 °F /  -20.9 °C -12.9 °F /  -24.9 °C 30.82 in /  1043.6 hPa WNW 10.4 mph /  16.7 km/h 10.4 mph /  16.7 km/h 70 % 0.00 in /  0 mm 429.0 W/m2 CLR
10:51 -5.6 °F /  -20.9 °C -13.2 °F /  -25.1 °C 30.82 in /  1043.6 hPa WSW 9.2 mph /  14.8 km/h 9.2 mph /  14.8 km/h 69 % 0.00 in /  0 mm 434.0 W/m2 CLR
10:52 -5.6 °F /  -20.9 °C -13.2 °F /  -25.1 °C 30.82 in /  1043.6 hPa West 9.2 mph /  14.8 km/h 9.2 mph /  14.8 km/h 69 % 0.00 in /  0 mm 436.0 W/m2 CLR
10:53 -5.6 °F /  -20.9 °C -13.2 °F /  -25.1 °C 30.82 in /  1043.6 hPa WNW 10.4 mph /  16.7 km/h 10.4 mph /  16.7 km/h 69 % 0.00 in /  0 mm 438.0 W/m2 CLR
10:58 -5.3 °F /  -20.7 °C -12.6 °F /  -24.8 °C 30.81 in /  1043.2 hPa WNW 10.4 mph /  16.7 km/h 10.4 mph /  16.7 km/h 70 % 0.00 in /  0 mm 443.0 W/m2 CLR
10:59 -5.3 °F /  -20.7 °C -12.6 °F /  -24.8 °C 30.82 in /  1043.6 hPa WNW 10.4 mph /  16.7 km/h 10.4 mph /  16.7 km/h 70 % 0.00 in /  0 mm 441.0 W/m2 CLR
11:04 -5.3 °F /  -20.7 °C -12.6 °F /  -24.8 °C 30.82 in /  1043.6 hPa WNW 5.8 mph /  9.3 km/h 5.8 mph /  9.3 km/h 70 % 0.00 in /  0 mm 445.0 W/m2 CLR
11:05 -5.3 °F /  -20.7 °C -12.6 °F /  -24.8 °C 30.82 in /  1043.6 hPa WNW 5.8 mph /  9.3 km/h 5.8 mph /  9.3 km/h 70 % 0.00 in /  0 mm 446.0 W/m2 CLR
11:10 -5.1 °F /  -20.6 °C -12.7 °F /  -24.8 °C 30.82 in /  1043.6 hPa West 9.2 mph /  14.8 km/h 9.2 mph /  14.8 km/h 69 % 0.00 in /  0 mm 450.0 W/m2 CLR
11:15 -4.9 °F /  -20.5 °C -12.5 °F /  -24.7 °C 30.81 in /  1043.2 hPa WNW 3.5 mph /  5.6 km/h 3.5 mph /  5.6 km/h 69 % 0.00 in /  0 mm 450.0 W/m2 CLR
11:17 -4.8 °F /  -20.4 °C -12.4 °F /  -24.7 °C 30.81 in /  1043.2 hPa WNW 5.0 mph /  8 km/h 5.0 mph /  8 km/h 69 % 0.00 in /  0 mm 454.0 W/m2 CLR
11:22 -4.6 °F /  -20.3 °C -12.2 °F /  -24.6 °C 30.81 in /  1043.2 hPa WSW 7.0 mph /  11.3 km/h 7.0 mph /  11.3 km/h 69 % 0.00 in /  0 mm 457.0 W/m2 CLR
11:24 -4.5 °F /  -20.3 °C -12.1 °F /  -24.5 °C 30.81 in /  1043.2 hPa West 6.9 mph /  11.1 km/h 6.9 mph /  11.1 km/h 69 % 0.00 in /  0 mm 459.0 W/m2 CLR
11:29 -4.1 °F /  -20.1 °C -11.7 °F /  -24.3 °C 30.81 in /  1043.2 hPa WSW 4.6 mph /  7.4 km/h 4.6 mph /  7.4 km/h 69 % 0.00 in /  0 mm 461.0 W/m2 CLR
11:34 -4.0 °F /  -20 °C -11.9 °F /  -24.4 °C 30.81 in /  1043.2 hPa WSW 11.5 mph /  18.5 km/h 11.5 mph /  18.5 km/h 68 % 0.00 in /  0 mm 462.0 W/m2 CLR
11:37 -3.9 °F /  -19.9 °C -11.8 °F /  -24.3 °C 30.81 in /  1043.2 hPa West 3.5 mph /  5.6 km/h 3.5 mph /  5.6 km/h 68 % 0.00 in /  0 mm 464.0 W/m2 CLR
11:42 -3.7 °F /  -19.8 °C -11.6 °F /  -24.2 °C 30.80 in /  1042.9 hPa WSW 9.2 mph /  14.8 km/h 9.2 mph /  14.8 km/h 68 % 0.00 in /  0 mm 466.0 W/m2 CLR
11:47 -3.6 °F /  -19.8 °C -11.5 °F /  -24.2 °C 30.80 in /  1042.9 hPa WSW 9.2 mph /  14.8 km/h 9.2 mph /  14.8 km/h 68 % 0.00 in /  0 mm 466.0 W/m2 CLR
11:52 -3.4 °F /  -19.7 °C -11.0 °F /  -23.9 °C 30.80 in /  1042.9 hPa WNW 11.0 mph /  17.7 km/h 11.0 mph /  17.7 km/h 69 % 0.00 in /  0 mm 466.0 W/m2 CLR
11:53 -3.3 °F /  -19.6 °C -10.9 °F /  -23.8 °C 30.80 in /  1042.9 hPa WNW 11.5 mph /  18.5 km/h 11.5 mph /  18.5 km/h 69 % 0.00 in /  0 mm 466.0 W/m2 CLR
11:54 -3.3 °F /  -19.6 °C -10.9 °F /  -23.8 °C 30.80 in /  1042.9 hPa WNW 11.5 mph /  18.5 km/h 11.5 mph /  18.5 km/h 69 % 0.00 in /  0 mm 468.0 W/m2 CLR
11:58 -3.3 °F /  -19.6 °C -11.2 °F /  -24 °C 30.80 in /  1042.9 hPa West 11.5 mph /  18.5 km/h 11.5 mph /  18.5 km/h 68 % 0.00 in /  0 mm 468.0 W/m2 CLR
12:03 -3.4 °F /  -19.7 °C -11.3 °F /  -24.1 °C 30.80 in /  1042.9 hPa WNW 10.4 mph /  16.7 km/h 10.4 mph /  16.7 km/h 68 % 0.00 in /  0 mm 466.0 W/m2 CLR
12:04 -3.4 °F /  -19.7 °C -11.3 °F /  -24.1 °C 30.80 in /  1042.9 hPa WNW 10.4 mph /  16.7 km/h 10.4 mph /  16.7 km/h 68 % 0.00 in /  0 mm 466.0 W/m2 CLR
12:09 -3.0 °F /  -19.4 °C -10.4 °F /  -23.6 °C 30.80 in /  1042.9 hPa West 3.5 mph /  5.6 km/h 3.5 mph /  5.6 km/h 70 % 0.00 in /  0 mm 466.0 W/m2 CLR
12:10 -3.0 °F /  -19.4 °C -10.4 °F /  -23.6 °C 30.80 in /  1042.9 hPa West 5.8 mph /  9.3 km/h 5.8 mph /  9.3 km/h 70 % 0.00 in /  0 mm 466.0 W/m2 CLR
12:14 -3.1 °F /  -19.5 °C -10.5 °F /  -23.6 °C 30.80 in /  1042.9 hPa West 10.0 mph /  16.1 km/h 10.0 mph /  16.1 km/h 70 % 0.00 in /  0 mm 466.0 W/m2 CLR
12:18 -3.4 °F /  -19.7 °C -10.7 °F /  -23.7 °C 30.80 in /  1042.9 hPa WSW 9.2 mph /  14.8 km/h 9.2 mph /  14.8 km/h 70 % 0.00 in /  0 mm 464.0 W/m2 CLR
12:23 -3.6 °F /  -19.8 °C -10.9 °F /  -23.8 °C 30.80 in /  1042.9 hPa West 10.4 mph /  16.7 km/h 10.4 mph /  16.7 km/h 70 % 0.00 in /  0 mm 461.0 W/m2 CLR
12:26 -3.6 °F /  -19.8 °C -10.9 °F /  -23.8 °C 30.80 in /  1042.9 hPa WSW 10.4 mph /  16.7 km/h 10.4 mph /  16.7 km/h 70 % 0.00 in /  0 mm 459.0 W/m2 CLR
12:31 -3.5 °F /  -19.7 °C -10.6 °F /  -23.7 °C 30.80 in /  1042.9 hPa WSW 8.1 mph /  13 km/h 8.1 mph /  13 km/h 71 % 0.00 in /  0 mm 457.0 W/m2 CLR
12:34 -3.4 °F /  -19.7 °C -10.5 °F /  -23.6 °C 30.80 in /  1042.9 hPa West 7.0 mph /  11.3 km/h 7.0 mph /  11.3 km/h 71 % 0.00 in /  0 mm 455.0 W/m2 CLR
12:39 -3.2 °F /  -19.6 °C -10.3 °F /  -23.5 °C 30.80 in /  1042.9 hPa SSW 11.5 mph /  18.5 km/h 11.5 mph /  18.5 km/h 71 % 0.00 in /  0 mm 452.0 W/m2 CLR
12:41 -3.5 °F /  -19.7 °C -10.8 °F /  -23.8 °C 30.79 in /  1042.5 hPa WSW 10.4 mph /  16.7 km/h 10.4 mph /  16.7 km/h 70 % 0.00 in /  0 mm 452.0 W/m2 CLR
12:44 -3.6 °F /  -19.8 °C -10.9 °F /  -23.8 °C 30.79 in /  1042.5 hPa WSW 10.4 mph /  16.7 km/h 10.4 mph /  16.7 km/h 70 % 0.00 in /  0 mm 446.0 W/m2 CLR
12:47 -3.5 °F /  -19.7 °C -10.6 °F /  -23.7 °C 30.79 in /  1042.5 hPa WSW 6.9 mph /  11.1 km/h 6.9 mph /  11.1 km/h 71 % 0.00 in /  0 mm 446.0 W/m2 CLR
12:50 -3.5 °F /  -19.7 °C -10.6 °F /  -23.7 °C 30.79 in /  1042.5 hPa West 11.0 mph /  17.7 km/h 11.0 mph /  17.7 km/h 71 % 0.00 in /  0 mm 445.0 W/m2 CLR
12:54 -3.6 °F /  -19.8 °C -10.7 °F /  -23.7 °C 30.79 in /  1042.5 hPa West 9.2 mph /  14.8 km/h 9.2 mph /  14.8 km/h 71 % 0.00 in /  0 mm 441.0 W/m2 CLR
12:57 -3.5 °F /  -19.7 °C -10.6 °F /  -23.7 °C 30.79 in /  1042.5 hPa West 8.0 mph /  12.9 km/h 8.0 mph /  12.9 km/h 71 % 0.00 in /  0 mm 439.0 W/m2 CLR
13:02 -3.7 °F /  -19.8 °C -11.0 °F /  -23.9 °C 30.79 in /  1042.5 hPa WSW 9.2 mph /  14.8 km/h 9.2 mph /  14.8 km/h 70 % 0.00 in /  0 mm 434.0 W/m2 CLR
13:05 -3.7 °F /  -19.8 °C -11.0 °F /  -23.9 °C 30.79 in /  1042.5 hPa West 9.2 mph /  14.8 km/h 9.2 mph /  14.8 km/h 70 % 0.00 in /  0 mm 429.0 W/m2 CLR
13:07 -3.7 °F /  -19.8 °C -11.0 °F /  -23.9 °C 30.79 in /  1042.5 hPa WSW 5.0 mph /  8 km/h 6.0 mph /  9.7 km/h 70 % 0.00 in /  0 mm 427.0 W/m2 CLR
13:12 -3.8 °F /  -19.9 °C -11.1 °F /  -23.9 °C 30.79 in /  1042.5 hPa West 10.4 mph /  16.7 km/h 10.4 mph /  16.7 km/h 70 % 0.00 in /  0 mm 420.0 W/m2 CLR
13:15 -3.7 °F /  -19.8 °C -11.0 °F /  -23.9 °C 30.79 in /  1042.5 hPa WNW 8.1 mph /  13 km/h 8.1 mph /  13 km/h 70 % 0.00 in /  0 mm 418.0 W/m2 CLR
13:18 -3.6 °F /  -19.8 °C -10.7 °F /  -23.7 °C 30.79 in /  1042.5 hPa WSW 12.7 mph /  20.4 km/h 12.7 mph /  20.4 km/h 71 % 0.00 in /  0 mm 415.0 W/m2 CLR
13:23 -3.6 °F /  -19.8 °C -10.7 °F /  -23.7 °C 30.79 in /  1042.5 hPa WSW 10.4 mph /  16.7 km/h 10.4 mph /  16.7 km/h 71 % 0.00 in /  0 mm 410.0 W/m2 CLR
13:26 -3.6 °F /  -19.8 °C -10.7 °F /  -23.7 °C 30.79 in /  1042.5 hPa SW 10.4 mph /  16.7 km/h 10.4 mph /  16.7 km/h 71 % 0.00 in /  0 mm 404.0 W/m2 CLR
13:31 -3.4 °F /  -19.7 °C -10.5 °F /  -23.6 °C 30.79 in /  1042.5 hPa WSW 11.0 mph /  17.7 km/h 11.0 mph /  17.7 km/h 71 % 0.00 in /  0 mm 397.0 W/m2 CLR
13:32 -3.4 °F /  -19.7 °C -10.5 °F /  -23.6 °C 30.79 in /  1042.5 hPa West 11.5 mph /  18.5 km/h 11.5 mph /  18.5 km/h 71 % 0.00 in /  0 mm 396.0 W/m2 CLR
13:34 -3.4 °F /  -19.7 °C -10.5 °F /  -23.6 °C 30.79 in /  1042.5 hPa WSW 12.0 mph /  19.3 km/h 12.0 mph /  19.3 km/h 71 % 0.00 in /  0 mm 392.0 W/m2 CLR
13:37 -3.3 °F /  -19.6 °C -10.4 °F /  -23.6 °C 30.79 in /  1042.5 hPa WSW 10.4 mph /  16.7 km/h 10.4 mph /  16.7 km/h 71 % 0.00 in /  0 mm 388.0 W/m2 CLR
13:42 -3.1 °F /  -19.5 °C -10.2 °F /  -23.4 °C 30.78 in /  1042.2 hPa WNW 10.4 mph /  16.7 km/h 10.4 mph /  16.7 km/h 71 % 0.00 in /  0 mm 381.0 W/m2 CLR
13:43 -3.0 °F /  -19.4 °C -10.1 °F /  -23.4 °C 30.78 in /  1042.2 hPa West 10.4 mph /  16.7 km/h 10.4 mph /  16.7 km/h 71 % 0.00 in /  0 mm 380.0 W/m2 CLR
13:45 -3.0 °F /  -19.4 °C -9.8 °F /  -23.2 °C 30.79 in /  1042.5 hPa West 12.7 mph /  20.4 km/h 12.7 mph /  20.4 km/h 72 % 0.00 in /  0 mm 376.0 W/m2 CLR
13:48 -2.8 °F /  -19.3 °C -9.6 °F /  -23.1 °C 30.79 in /  1042.5 hPa West 11.5 mph /  18.5 km/h 11.5 mph /  18.5 km/h 72 % 0.00 in /  0 mm 373.0 W/m2 CLR
13:51 -3.0 °F /  -19.4 °C -10.1 °F /  -23.4 °C 30.78 in /  1042.2 hPa West 11.5 mph /  18.5 km/h 11.5 mph /  18.5 km/h 71 % 0.00 in /  0 mm 366.0 W/m2 CLR
13:53 -2.9 °F /  -19.4 °C -10.0 °F /  -23.3 °C 30.78 in /  1042.2 hPa West 10.4 mph /  16.7 km/h 10.4 mph /  16.7 km/h 71 % 0.00 in /  0 mm 362.0 W/m2 CLR
13:57 -2.8 °F /  -19.3 °C -9.9 °F /  -23.3 °C 30.78 in /  1042.2 hPa WSW 10.0 mph /  16.1 km/h 10.0 mph /  16.1 km/h 71 % 0.00 in /  0 mm 355.0 W/m2 CLR
14:02 -2.8 °F /  -19.3 °C -9.9 °F /  -23.3 °C 30.78 in /  1042.2 hPa West 11.5 mph /  18.5 km/h 11.5 mph /  18.5 km/h 71 % 0.00 in /  0 mm 348.0 W/m2 CLR
14:06 -2.8 °F /  -19.3 °C -9.9 °F /  -23.3 °C 30.78 in /  1042.2 hPa WSW 8.0 mph /  12.9 km/h 8.0 mph /  12.9 km/h 71 % 0.00 in /  0 mm 339.0 W/m2 CLR
14:07 -2.8 °F /  -19.3 °C -9.9 °F /  -23.3 °C 30.78 in /  1042.2 hPa West 12.7 mph /  20.4 km/h 12.7 mph /  20.4 km/h 71 % 0.00 in /  0 mm 336.0 W/m2 CLR
14:12 -2.8 °F /  -19.3 °C -9.9 °F /  -23.3 °C 30.79 in /  1042.5 hPa WSW 9.2 mph /  14.8 km/h 9.2 mph /  14.8 km/h 71 % 0.00 in /  0 mm 327.0 W/m2 CLR
14:13 -2.7 °F /  -19.3 °C -9.8 °F /  -23.2 °C 30.79 in /  1042.5 hPa West 5.8 mph /  9.3 km/h 5.8 mph /  9.3 km/h 71 % 0.00 in /  0 mm 327.0 W/m2 CLR
14:18 -2.5 °F /  -19.2 °C -9.6 °F /  -23.1 °C 30.78 in /  1042.2 hPa WSW 9.2 mph /  14.8 km/h 9.2 mph /  14.8 km/h 71 % 0.00 in /  0 mm 316.0 W/m2 CLR
14:23 -2.4 °F /  -19.1 °C -9.5 °F /  -23.1 °C 30.79 in /  1042.5 hPa WNW 5.8 mph /  9.3 km/h 5.8 mph /  9.3 km/h 71 % 0.00 in /  0 mm 306.0 W/m2 CLR
14:24 -2.3 °F /  -19.1 °C -9.4 °F /  -23 °C 30.79 in /  1042.5 hPa West 9.0 mph /  14.5 km/h 9.0 mph /  14.5 km/h 71 % 0.00 in /  0 mm 304.0 W/m2 CLR
14:25 -2.3 °F /  -19.1 °C -9.4 °F /  -23 °C 30.79 in /  1042.5 hPa West 9.2 mph /  14.8 km/h 9.2 mph /  14.8 km/h 71 % 0.00 in /  0 mm 301.0 W/m2 CLR
14:29 -2.1 °F /  -18.9 °C -9.2 °F /  -22.9 °C 30.79 in /  1042.5 hPa WNW 8.1 mph /  13 km/h 8.1 mph /  13 km/h 71 % 0.00 in /  0 mm 294.0 W/m2 CLR
14:34 -1.9 °F /  -18.8 °C -9.0 °F /  -22.8 °C 30.79 in /  1042.5 hPa WSW 10.4 mph /  16.7 km/h 10.4 mph /  16.7 km/h 71 % 0.00 in /  0 mm 281.0 W/m2 CLR
14:37 -1.9 °F /  -18.8 °C -9.0 °F /  -22.8 °C 30.79 in /  1042.5 hPa West 11.5 mph /  18.5 km/h 11.5 mph /  18.5 km/h 71 % 0.00 in /  0 mm 274.0 W/m2 CLR
14:42 -2.1 °F /  -18.9 °C -9.5 °F /  -23.1 °C 30.79 in /  1042.5 hPa West 11.5 mph /  18.5 km/h 11.5 mph /  18.5 km/h 70 % 0.00 in /  0 mm 260.0 W/m2 CLR
14:43 -2.1 °F /  -18.9 °C -9.5 °F /  -23.1 °C 30.79 in /  1042.5 hPa West 11.5 mph /  18.5 km/h 11.5 mph /  18.5 km/h 70 % 0.00 in /  0 mm 257.0 W/m2 CLR
14:45 -2.1 °F /  -18.9 °C -9.5 °F /  -23.1 °C 30.79 in /  1042.5 hPa West 9.2 mph /  14.8 km/h 9.2 mph /  14.8 km/h 70 % 0.00 in /  0 mm 250.0 W/m2 CLR
14:48 -2.0 °F /  -18.9 °C -9.1 °F /  -22.8 °C 30.79 in /  1042.5 hPa WNW 11.5 mph /  18.5 km/h 11.5 mph /  18.5 km/h 71 % 0.00 in /  0 mm 243.0 W/m2 CLR
14:52 -2.1 °F /  -18.9 °C -9.5 °F /  -23.1 °C 30.79 in /  1042.5 hPa West 9.2 mph /  14.8 km/h 9.2 mph /  14.8 km/h 70 % 0.00 in /  0 mm 229.0 W/m2 CLR
15:01 -2.1 °F /  -18.9 °C -9.5 °F /  -23.1 °C 30.79 in /  1042.5 hPa WSW 9.2 mph /  14.8 km/h 9.2 mph /  14.8 km/h 70 % 0.00 in /  0 mm 204.0 W/m2 CLR
15:03 -2.1 °F /  -18.9 °C -9.2 °F /  -22.9 °C 30.79 in /  1042.5 hPa WNW 11.5 mph /  18.5 km/h 11.5 mph /  18.5 km/h 71 % 0.00 in /  0 mm 197.0 W/m2 CLR
15:08 -2.2 °F /  -19 °C -9.6 °F /  -23.1 °C 30.79 in /  1042.5 hPa SW 9.2 mph /  14.8 km/h 9.2 mph /  14.8 km/h 70 % 0.00 in /  0 mm 181.0 W/m2 CLR
15:13 -2.5 °F /  -19.2 °C -9.9 °F /  -23.3 °C 30.79 in /  1042.5 hPa WSW 9.2 mph /  14.8 km/h 9.2 mph /  14.8 km/h 70 % 0.00 in /  0 mm 163.0 W/m2 CLR
15:14 -2.5 °F /  -19.2 °C -9.9 °F /  -23.3 °C 30.79 in /  1042.5 hPa West 9.0 mph /  14.5 km/h 9.0 mph /  14.5 km/h 70 % 0.00 in /  0 mm 163.0 W/m2 CLR
15:19 -2.7 °F /  -19.3 °C -10.1 °F /  -23.4 °C 30.79 in /  1042.5 hPa West 8.1 mph /  13 km/h 8.1 mph /  13 km/h 70 % 0.00 in /  0 mm 144.0 W/m2 CLR
15:24 -2.9 °F /  -19.4 °C -10.3 °F /  -23.5 °C 30.79 in /  1042.5 hPa WSW 10.4 mph /  16.7 km/h 10.4 mph /  16.7 km/h 70 % 0.00 in /  0 mm 130.0 W/m2 CLR
15:26 -3.0 °F /  -19.4 °C -10.4 °F /  -23.6 °C 30.79 in /  1042.5 hPa WSW 11.5 mph /  18.5 km/h 11.5 mph /  18.5 km/h 70 % 0.00 in /  0 mm 127.0 W/m2 CLR
15:31 -3.1 °F /  -19.5 °C -10.2 °F /  -23.4 °C 30.80 in /  1042.9 hPa West 5.8 mph /  9.3 km/h 5.8 mph /  9.3 km/h 71 % 0.00 in /  0 mm 109.0 W/m2 CLR
15:32 -3.1 °F /  -19.5 °C -10.2 °F /  -23.4 °C 30.79 in /  1042.5 hPa WSW 5.8 mph /  9.3 km/h 5.8 mph /  9.3 km/h 71 % 0.00 in /  0 mm 109.0 W/m2 CLR
15:33 -3.1 °F /  -19.5 °C -10.2 °F /  -23.4 °C 30.79 in /  1042.5 hPa West 6.0 mph /  9.7 km/h 6.0 mph /  9.7 km/h 71 % 0.00 in /  0 mm 105.0 W/m2 CLR
15:38 -3.5 °F /  -19.7 °C -10.6 °F /  -23.7 °C 30.79 in /  1042.5 hPa WSW 11.5 mph /  18.5 km/h 11.5 mph /  18.5 km/h 71 % 0.00 in /  0 mm 90.0 W/m2 CLR
15:43 -4.0 °F /  -20 °C -11.0 °F /  -23.9 °C 30.80 in /  1042.9 hPa WSW 12.0 mph /  19.3 km/h 12.0 mph /  19.3 km/h 71 % 0.00 in /  0 mm 25.0 W/m2 CLR
15:45 -4.1 °F /  -20.1 °C -10.9 °F /  -23.8 °C 30.79 in /  1042.5 hPa West 11.5 mph /  18.5 km/h 11.5 mph /  18.5 km/h 72 % 0.00 in /  0 mm 23.0 W/m2 CLR
15:49 -4.3 °F /  -20.2 °C -11.0 °F /  -23.9 °C 30.80 in /  1042.9 hPa West 10.4 mph /  16.7 km/h 10.4 mph /  16.7 km/h 72 % 0.00 in /  0 mm 23.0 W/m2 CLR
15:54 -4.3 °F /  -20.2 °C -11.0 °F /  -23.9 °C 30.80 in /  1042.9 hPa WSW 8.1 mph /  13 km/h 8.1 mph /  13 km/h 72 % 0.00 in /  0 mm 21.0 W/m2 CLR
15:55 -4.3 °F /  -20.2 °C -11.0 °F /  -23.9 °C 30.80 in /  1042.9 hPa WSW 8.1 mph /  13 km/h 8.1 mph /  13 km/h 72 % 0.00 in /  0 mm 21.0 W/m2 CLR
16:00 -4.4 °F /  -20.2 °C -10.9 °F /  -23.8 °C 30.80 in /  1042.9 hPa WSW 11.5 mph /  18.5 km/h 11.5 mph /  18.5 km/h 73 % 0.00 in /  0 mm 19.0 W/m2 CLR
16:01 -4.4 °F /  -20.2 °C -10.9 °F /  -23.8 °C 30.80 in /  1042.9 hPa WSW 9.2 mph /  14.8 km/h 9.2 mph /  14.8 km/h 73 % 0.00 in /  0 mm 18.0 W/m2 CLR
16:06 -4.4 °F /  -20.2 °C -10.9 °F /  -23.8 °C 30.80 in /  1042.9 hPa West 10.4 mph /  16.7 km/h 10.4 mph /  16.7 km/h 73 % 0.00 in /  0 mm 16.0 W/m2 CLR
16:11 -4.5 °F /  -20.3 °C -11.0 °F /  -23.9 °C 30.80 in /  1042.9 hPa West 5.8 mph /  9.3 km/h 5.8 mph /  9.3 km/h 73 % 0.00 in /  0 mm 14.0 W/m2 CLR
16:14 -4.6 °F /  -20.3 °C -11.1 °F /  -23.9 °C 30.80 in /  1042.9 hPa WSW 3.5 mph /  5.6 km/h 3.5 mph /  5.6 km/h 73 % 0.00 in /  0 mm 12.0 W/m2 CLR
16:17 -4.6 °F /  -20.3 °C -11.1 °F /  -23.9 °C 30.81 in /  1043.2 hPa West 8.1 mph /  13 km/h 8.1 mph /  13 km/h 73 % 0.00 in /  0 mm 12.0 W/m2 CLR
16:21 -4.8 °F /  -20.4 °C -11.3 °F /  -24.1 °C 30.81 in /  1043.2 hPa WSW 9.2 mph /  14.8 km/h 9.2 mph /  14.8 km/h 73 % 0.00 in /  0 mm 11.0 W/m2 CLR
16:23 -4.8 °F /  -20.4 °C -11.3 °F /  -24.1 °C 30.80 in /  1042.9 hPa WSW 11.5 mph /  18.5 km/h 11.5 mph /  18.5 km/h 73 % 0.00 in /  0 mm 9.0 W/m2 CLR
16:26 -5.0 °F /  -20.6 °C -11.4 °F /  -24.1 °C 30.80 in /  1042.9 hPa WSW 5.8 mph /  9.3 km/h 5.8 mph /  9.3 km/h 73 % 0.00 in /  0 mm 7.0 W/m2 CLR
16:28 -5.1 °F /  -20.6 °C -11.5 °F /  -24.2 °C 30.81 in /  1043.2 hPa WSW 6.9 mph /  11.1 km/h 6.9 mph /  11.1 km/h 73 % 0.00 in /  0 mm 7.0 W/m2 CLR
16:33 -5.4 °F /  -20.8 °C -11.8 °F /  -24.3 °C 30.80 in /  1042.9 hPa SW 6.9 mph /  11.1 km/h 6.9 mph /  11.1 km/h 73 % 0.00 in /  0 mm 5.0 W/m2 CLR
16:38 -5.8 °F /  -21 °C -12.2 °F /  -24.6 °C 30.80 in /  1042.9 hPa WSW 6.9 mph /  11.1 km/h 6.9 mph /  11.1 km/h 73 % 0.00 in /  0 mm 0.0 W/m2 CLR
16:40 -5.9 °F /  -21.1 °C -12.3 °F /  -24.6 °C 30.80 in /  1042.9 hPa West 8.0 mph /  12.9 km/h 8.0 mph /  12.9 km/h 73 % 0.00 in /  0 mm 0.0 W/m2 CLR
16:45 -6.1 °F /  -21.2 °C -12.2 °F /  -24.6 °C 30.81 in /  1043.2 hPa West 6.0 mph /  9.7 km/h 6.0 mph /  9.7 km/h 74 % 0.00 in /  0 mm 0.0 W/m2 CLR
16:48 -6.1 °F /  -21.2 °C -12.2 °F /  -24.6 °C 30.81 in /  1043.2 hPa WSW 8.1 mph /  13 km/h 8.1 mph /  13 km/h 74 % 0.00 in /  0 mm 0.0 W/m2 CLR
16:53 -6.3 °F /  -21.3 °C -12.4 °F /  -24.7 °C 30.81 in /  1043.2 hPa WSW 8.1 mph /  13 km/h 8.1 mph /  13 km/h 74 % 0.00 in /  0 mm 0.0 W/m2 CLR
16:56 -6.3 °F /  -21.3 °C -12.4 °F /  -24.7 °C 30.81 in /  1043.2 hPa West 5.8 mph /  9.3 km/h 5.8 mph /  9.3 km/h 74 % 0.00 in /  0 mm 0.0 W/m2 CLR
17:01 -6.4 °F /  -21.3 °C -12.3 °F /  -24.6 °C 30.81 in /  1043.2 hPa WSW 8.1 mph /  13 km/h 8.1 mph /  13 km/h 75 % 0.00 in /  0 mm 0.0 W/m2 CLR
17:02 -6.5 °F /  -21.4 °C -12.4 °F /  -24.7 °C 30.81 in /  1043.2 hPa WSW 7.0 mph /  11.3 km/h 7.0 mph /  11.3 km/h 75 % 0.00 in /  0 mm 0.0 W/m2 CLR
17:07 -6.5 °F /  -21.4 °C -12.4 °F /  -24.7 °C 30.81 in /  1043.2 hPa WSW 5.8 mph /  9.3 km/h 5.8 mph /  9.3 km/h 75 % 0.00 in /  0 mm 0.0 W/m2 CLR
17:12 -6.6 °F /  -21.4 °C -12.5 °F /  -24.7 °C 30.81 in /  1043.2 hPa West 6.9 mph /  11.1 km/h 6.9 mph /  11.1 km/h 75 % 0.00 in /  0 mm 0.0 W/m2 CLR
17:13 -6.6 °F /  -21.4 °C -12.5 °F /  -24.7 °C 30.81 in /  1043.2 hPa West 6.9 mph /  11.1 km/h 6.9 mph /  11.1 km/h 75 % 0.00 in /  0 mm 0.0 W/m2 CLR
17:18 -6.7 °F /  -21.5 °C -12.5 °F /  -24.7 °C 30.81 in /  1043.2 hPa West 6.9 mph /  11.1 km/h 6.9 mph /  11.1 km/h 75 % 0.00 in /  0 mm 0.0 W/m2 CLR
17:19 -6.8 °F /  -21.6 °C -12.6 °F /  -24.8 °C 30.81 in /  1043.2 hPa West 3.5 mph /  5.6 km/h 3.5 mph /  5.6 km/h 75 % 0.00 in /  0 mm 0.0 W/m2 CLR
17:21 -6.8 °F /  -21.6 °C -12.6 °F /  -24.8 °C 30.81 in /  1043.2 hPa WSW 5.0 mph /  8 km/h 5.0 mph /  8 km/h 75 % 0.00 in /  0 mm 0.0 W/m2 CLR
17:26 -7.0 °F /  -21.7 °C -12.8 °F /  -24.9 °C 30.82 in /  1043.6 hPa West 8.1 mph /  13 km/h 8.1 mph /  13 km/h 75 % 0.00 in /  0 mm 0.0 W/m2 CLR
17:29 -7.0 °F /  -21.7 °C -12.8 °F /  -24.9 °C 30.82 in /  1043.6 hPa West 4.6 mph /  7.4 km/h 4.6 mph /  7.4 km/h 75 % 0.00 in /  0 mm 0.0 W/m2 CLR
17:33 -7.1 °F /  -21.7 °C -12.9 °F /  -24.9 °C 30.82 in /  1043.6 hPa West 4.6 mph /  7.4 km/h 4.6 mph /  7.4 km/h 75 % 0.00 in /  0 mm 0.0 W/m2 CLR
17:37 -7.2 °F /  -21.8 °C -13.0 °F /  -25 °C 30.82 in /  1043.6 hPa WSW 6.0 mph /  9.7 km/h 6.0 mph /  9.7 km/h 75 % 0.00 in /  0 mm 0.0 W/m2 CLR
17:38 -7.2 °F /  -21.8 °C -13.0 °F /  -25 °C 30.82 in /  1043.6 hPa WSW 6.9 mph /  11.1 km/h 6.9 mph /  11.1 km/h 75 % 0.00 in /  0 mm 0.0 W/m2 CLR
17:43 -7.3 °F /  -21.8 °C -13.1 °F /  -25.1 °C 30.82 in /  1043.6 hPa West 6.9 mph /  11.1 km/h 6.9 mph /  11.1 km/h 75 % 0.00 in /  0 mm 0.0 W/m2 CLR
17:48 -7.4 °F /  -21.9 °C -13.2 °F /  -25.1 °C 30.82 in /  1043.6 hPa West 4.6 mph /  7.4 km/h 4.6 mph /  7.4 km/h 75 % 0.00 in /  0 mm 0.0 W/m2 CLR
17:49 -7.4 °F /  -21.9 °C -13.2 °F /  -25.1 °C 30.82 in /  1043.6 hPa West 4.6 mph /  7.4 km/h 4.6 mph /  7.4 km/h 75 % 0.00 in /  0 mm 0.0 W/m2 CLR
17:54 -7.5 °F /  -21.9 °C -13.3 °F /  -25.2 °C 30.82 in /  1043.6 hPa West 4.6 mph /  7.4 km/h 4.6 mph /  7.4 km/h 75 % 0.00 in /  0 mm 0.0 W/m2 CLR
17:57 -7.6 °F /  -22 °C -13.4 °F /  -25.2 °C 30.82 in /  1043.6 hPa West 3.5 mph /  5.6 km/h 3.5 mph /  5.6 km/h 75 % 0.00 in /  0 mm 0.0 W/m2 CLR
18:00 -7.6 °F /  -22 °C -13.4 °F /  -25.2 °C 30.82 in /  1043.6 hPa West 4.6 mph /  7.4 km/h 4.6 mph /  7.4 km/h 75 % 0.00 in /  0 mm 0.0 W/m2 CLR
18:03 -7.7 °F /  -22.1 °C -13.3 °F /  -25.2 °C 30.82 in /  1043.6 hPa West 5.0 mph /  8 km/h 5.0 mph /  8 km/h 76 % 0.00 in /  0 mm 0.0 W/m2 CLR
18:05 -7.7 °F /  -22.1 °C -13.3 °F /  -25.2 °C 30.82 in /  1043.6 hPa West 4.6 mph /  7.4 km/h 4.6 mph /  7.4 km/h 76 % 0.00 in /  0 mm 0.0 W/m2 CLR
18:10 -7.7 °F /  -22.1 °C -13.3 °F /  -25.2 °C 30.83 in /  1043.9 hPa West 4.6 mph /  7.4 km/h 4.6 mph /  7.4 km/h 76 % 0.00 in /  0 mm 0.0 W/m2 CLR
18:12 -7.7 °F /  -22.1 °C -13.3 °F /  -25.2 °C 30.83 in /  1043.9 hPa West 4.6 mph /  7.4 km/h 4.6 mph /  7.4 km/h 76 % 0.00 in /  0 mm 0.0 W/m2 CLR
18:14 -7.7 °F /  -22.1 °C -13.3 °F /  -25.2 °C 30.83 in /  1043.9 hPa West 3.5 mph /  5.6 km/h 3.5 mph /  5.6 km/h 76 % 0.00 in /  0 mm 0.0 W/m2 CLR
18:17 -7.7 °F /  -22.1 °C -13.3 °F /  -25.2 °C 30.82 in /  1043.6 hPa West 5.8 mph /  9.3 km/h 5.8 mph /  9.3 km/h 76 % 0.00 in /  0 mm 0.0 W/m2 CLR
18:20 -7.7 °F /  -22.1 °C -13.3 °F /  -25.2 °C 30.82 in /  1043.6 hPa West 5.8 mph /  9.3 km/h 5.8 mph /  9.3 km/h 76 % 0.00 in /  0 mm 0.0 W/m2 CLR
18:23 -7.7 °F /  -22.1 °C -13.3 °F /  -25.2 °C 30.82 in /  1043.6 hPa West 6.9 mph /  11.1 km/h 6.9 mph /  11.1 km/h 76 % 0.00 in /  0 mm 0.0 W/m2 CLR
18:27 -7.7 °F /  -22.1 °C -13.3 °F /  -25.2 °C 30.83 in /  1043.9 hPa West 4.6 mph /  7.4 km/h 4.6 mph /  7.4 km/h 76 % 0.00 in /  0 mm 0.0 W/m2 CLR
18:28 -7.7 °F /  -22.1 °C -13.3 °F /  -25.2 °C 30.83 in /  1043.9 hPa West 3.5 mph /  5.6 km/h 3.5 mph /  5.6 km/h 76 % 0.00 in /  0 mm 0.0 W/m2 CLR
18:33 -7.9 °F /  -22.2 °C -13.5 °F /  -25.3 °C 30.82 in /  1043.6 hPa West 3.0 mph /  4.8 km/h 3.0 mph /  4.8 km/h 76 % 0.00 in /  0 mm 0.0 W/m2 CLR
18:34 -7.9 °F /  -22.2 °C -13.5 °F /  -25.3 °C 30.82 in /  1043.6 hPa West 4.6 mph /  7.4 km/h 4.6 mph /  7.4 km/h 76 % 0.00 in /  0 mm 0.0 W/m2 CLR
18:39 -8.1 °F /  -22.3 °C -13.6 °F /  -25.3 °C 30.83 in /  1043.9 hPa West 5.8 mph /  9.3 km/h 5.8 mph /  9.3 km/h 76 % 0.00 in /  0 mm 0.0 W/m2 CLR
18:40 -8.1 °F /  -22.3 °C -13.6 °F /  -25.3 °C 30.83 in /  1043.9 hPa West 5.8 mph /  9.3 km/h 5.8 mph /  9.3 km/h 76 % 0.00 in /  0 mm 0.0 W/m2 CLR
18:45 -8.1 °F /  -22.3 °C -13.6 °F /  -25.3 °C 30.83 in /  1043.9 hPa West 9.2 mph /  14.8 km/h 9.2 mph /  14.8 km/h 76 % 0.00 in /  0 mm 0.0 W/m2 CLR
18:50 -8.1 °F /  -22.3 °C -13.6 °F /  -25.3 °C 30.83 in /  1043.9 hPa West 6.9 mph /  11.1 km/h 6.9 mph /  11.1 km/h 76 % 0.00 in /  0 mm 0.0 W/m2 CLR
18:51 -8.1 °F /  -22.3 °C -13.6 °F /  -25.3 °C 30.83 in /  1043.9 hPa West 6.9 mph /  11.1 km/h 6.9 mph /  11.1 km/h 76 % 0.00 in /  0 mm 0.0 W/m2 CLR
18:56 -8.1 °F /  -22.3 °C -13.6 °F /  -25.3 °C 30.83 in /  1043.9 hPa West 5.8 mph /  9.3 km/h 5.8 mph /  9.3 km/h 76 % 0.00 in /  0 mm 0.0 W/m2 CLR
19:01 -8.2 °F /  -22.3 °C -13.7 °F /  -25.4 °C 30.82 in /  1043.6 hPa WSW 9.0 mph /  14.5 km/h 9.0 mph /  14.5 km/h 76 % 0.00 in /  0 mm 0.0 W/m2 CLR
19:02 -8.2 °F /  -22.3 °C -13.7 °F /  -25.4 °C 30.82 in /  1043.6 hPa West 15.0 mph /  24.1 km/h 15.0 mph /  24.1 km/h 76 % 0.00 in /  0 mm 0.0 W/m2 CLR
19:03 -8.2 °F /  -22.3 °C -13.7 °F /  -25.4 °C 30.82 in /  1043.6 hPa WSW 15.0 mph /  24.1 km/h 15.0 mph /  24.1 km/h 76 % 0.00 in /  0 mm 0.0 W/m2 CLR
19:07 -8.1 °F /  -22.3 °C -13.9 °F /  -25.5 °C 30.82 in /  1043.6 hPa West 9.2 mph /  14.8 km/h 9.2 mph /  14.8 km/h 75 % 0.00 in /  0 mm 0.0 W/m2 CLR
19:10 -8.1 °F /  -22.3 °C -13.9 °F /  -25.5 °C 30.82 in /  1043.6 hPa West 11.5 mph /  18.5 km/h 11.5 mph /  18.5 km/h 75 % 0.00 in /  0 mm 0.0 W/m2 CLR
19:13 -8.2 °F /  -22.3 °C -14.0 °F /  -25.6 °C 30.82 in /  1043.6 hPa West 8.1 mph /  13 km/h 8.1 mph /  13 km/h 75 % 0.00 in /  0 mm 0.0 W/m2 CLR
19:17 -8.4 °F /  -22.4 °C -14.2 °F /  -25.7 °C 30.82 in /  1043.6 hPa WSW 6.0 mph /  9.7 km/h 6.0 mph /  9.7 km/h 75 % 0.00 in /  0 mm 0.0 W/m2 CLR
19:18 -8.4 °F /  -22.4 °C -13.9 °F /  -25.5 °C 30.82 in /  1043.6 hPa WSW 6.9 mph /  11.1 km/h 6.9 mph /  11.1 km/h 76 % 0.00 in /  0 mm 0.0 W/m2 CLR
19:23 -8.4 °F /  -22.4 °C -13.9 °F /  -25.5 °C 30.82 in /  1043.6 hPa WSW 6.0 mph /  9.7 km/h 6.0 mph /  9.7 km/h 76 % 0.00 in /  0 mm 0.0 W/m2 CLR
19:25 -8.5 °F /  -22.5 °C -14.0 °F /  -25.6 °C 30.82 in /  1043.6 hPa West 8.1 mph /  13 km/h 8.1 mph /  13 km/h 76 % 0.00 in /  0 mm 0.0 W/m2 CLR
19:30 -8.5 °F /  -22.5 °C -14.0 °F /  -25.6 °C 30.82 in /  1043.6 hPa West 9.2 mph /  14.8 km/h 9.2 mph /  14.8 km/h 76 % 0.00 in /  0 mm 0.0 W/m2 CLR
19:31 -8.5 °F /  -22.5 °C -14.0 °F /  -25.6 °C 30.82 in /  1043.6 hPa West 9.2 mph /  14.8 km/h 9.2 mph /  14.8 km/h 76 % 0.00 in /  0 mm 0.0 W/m2 CLR
19:33 -8.5 °F /  -22.5 °C -13.8 °F /  -25.4 °C 30.82 in /  1043.6 hPa West 4.0 mph /  6.4 km/h 4.0 mph /  6.4 km/h 77 % 0.00 in /  0 mm 0.0 W/m2 CLR
19:37 -8.6 °F /  -22.6 °C -13.9 °F /  -25.5 °C 30.82 in /  1043.6 hPa West 6.9 mph /  11.1 km/h 6.9 mph /  11.1 km/h 77 % 0.00 in /  0 mm 0.0 W/m2 CLR
19:39 -8.7 °F /  -22.6 °C -14.0 °F /  -25.6 °C 30.82 in /  1043.6 hPa WSW 6.0 mph /  9.7 km/h 6.0 mph /  9.7 km/h 77 % 0.00 in /  0 mm 0.0 W/m2 CLR
19:40 -8.8 °F /  -22.7 °C -14.1 °F /  -25.6 °C 30.82 in /  1043.6 hPa West 8.1 mph /  13 km/h 8.1 mph /  13 km/h 77 % 0.00 in /  0 mm 0.0 W/m2 CLR
19:43 -8.7 °F /  -22.6 °C -14.0 °F /  -25.6 °C 30.82 in /  1043.6 hPa WSW 8.1 mph /  13 km/h 8.1 mph /  13 km/h 77 % 0.00 in /  0 mm 0.0 W/m2 CLR
19:46 -8.8 °F /  -22.7 °C -14.1 °F /  -25.6 °C 30.82 in /  1043.6 hPa West 4.6 mph /  7.4 km/h 4.6 mph /  7.4 km/h 77 % 0.00 in /  0 mm 0.0 W/m2 CLR
19:49 -8.7 °F /  -22.6 °C -14.0 °F /  -25.6 °C 30.82 in /  1043.6 hPa WSW 8.1 mph /  13 km/h 8.1 mph /  13 km/h 77 % 0.00 in /  0 mm 0.0 W/m2 CLR
19:51 -8.7 °F /  -22.6 °C -14.0 °F /  -25.6 °C 30.82 in /  1043.6 hPa West 9.2 mph /  14.8 km/h 9.2 mph /  14.8 km/h 77 % 0.00 in /  0 mm 0.0 W/m2 CLR
19:56 -8.6 °F /  -22.6 °C -13.6 °F /  -25.3 °C 30.82 in /  1043.6 hPa WSW 5.8 mph /  9.3 km/h 5.8 mph /  9.3 km/h 78 % 0.00 in /  0 mm 0.0 W/m2 CLR
19:57 -8.6 °F /  -22.6 °C -13.6 °F /  -25.3 °C 30.82 in /  1043.6 hPa WSW 6.9 mph /  11.1 km/h 6.9 mph /  11.1 km/h 78 % 0.00 in /  0 mm 0.0 W/m2 CLR
20:02 -8.9 °F /  -22.7 °C -14.2 °F /  -25.7 °C 30.82 in /  1043.6 hPa West 6.9 mph /  11.1 km/h 6.9 mph /  11.1 km/h 77 % 0.00 in /  0 mm 0.0 W/m2 CLR
20:03 -9.0 °F /  -22.8 °C -14.3 °F /  -25.7 °C 30.82 in /  1043.6 hPa WSW 6.0 mph /  9.7 km/h 6.0 mph /  9.7 km/h 77 % 0.00 in /  0 mm 0.0 W/m2 CLR
20:08 -9.3 °F /  -22.9 °C -14.6 °F /  -25.9 °C 30.82 in /  1043.6 hPa WSW 7.0 mph /  11.3 km/h 7.0 mph /  11.3 km/h 77 % 0.00 in /  0 mm 0.0 W/m2 CLR
20:11 -9.4 °F /  -23 °C -14.7 °F /  -25.9 °C 30.82 in /  1043.6 hPa WSW 5.8 mph /  9.3 km/h 5.8 mph /  9.3 km/h 77 % 0.00 in /  0 mm 0.0 W/m2 CLR
20:14 -9.5 °F /  -23.1 °C -14.5 °F /  -25.8 °C 30.82 in /  1043.6 hPa West 3.5 mph /  5.6 km/h 3.5 mph /  5.6 km/h 78 % 0.00 in /  0 mm 0.0 W/m2 CLR
20:19 -9.6 °F /  -23.1 °C -14.6 °F /  -25.9 °C 30.82 in /  1043.6 hPa West 5.0 mph /  8 km/h 5.0 mph /  8 km/h 78 % 0.00 in /  0 mm 0.0 W/m2 CLR
20:24 -9.6 °F /  -23.1 °C -14.6 °F /  -25.9 °C 30.82 in /  1043.6 hPa WNW 3.5 mph /  5.6 km/h 3.5 mph /  5.6 km/h 78 % 0.00 in /  0 mm 0.0 W/m2 CLR
20:29 -9.5 °F /  -23.1 °C -14.5 °F /  -25.8 °C 30.82 in /  1043.6 hPa West 6.0 mph /  9.7 km/h 6.0 mph /  9.7 km/h 78 % 0.00 in /  0 mm 0.0 W/m2 CLR
20:32 -9.4 °F /  -23 °C -14.4 °F /  -25.8 °C 30.82 in /  1043.6 hPa WNW 6.9 mph /  11.1 km/h 6.9 mph /  11.1 km/h 78 % 0.00 in /  0 mm 0.0 W/m2 CLR
20:34 -9.4 °F /  -23 °C -14.4 °F /  -25.8 °C 30.82 in /  1043.6 hPa West 5.8 mph /  9.3 km/h 5.8 mph /  9.3 km/h 78 % 0.00 in /  0 mm 0.0 W/m2 CLR
20:37 -9.2 °F /  -22.9 °C -13.9 °F /  -25.5 °C 30.82 in /  1043.6 hPa West 6.9 mph /  11.1 km/h 6.9 mph /  11.1 km/h 79 % 0.00 in /  0 mm 0.0 W/m2 CLR
20:42 -9.1 °F /  -22.8 °C -14.1 °F /  -25.6 °C 30.82 in /  1043.6 hPa West 5.8 mph /  9.3 km/h 5.8 mph /  9.3 km/h 78 % 0.00 in /  0 mm 0.0 W/m2 CLR
20:43 -9.1 °F /  -22.8 °C -14.1 °F /  -25.6 °C 30.82 in /  1043.6 hPa West 6.0 mph /  9.7 km/h 6.0 mph /  9.7 km/h 78 % 0.00 in /  0 mm 0.0 W/m2 CLR
20:48 -9.1 °F /  -22.8 °C -14.1 °F /  -25.6 °C 30.82 in /  1043.6 hPa WNW 4.6 mph /  7.4 km/h 4.6 mph /  7.4 km/h 78 % 0.00 in /  0 mm 0.0 W/m2 CLR
20:50 -9.1 °F /  -22.8 °C -14.1 °F /  -25.6 °C 30.82 in /  1043.6 hPa West 8.1 mph /  13 km/h 8.1 mph /  13 km/h 78 % 0.00 in /  0 mm 0.0 W/m2 CLR
20:53 -9.1 °F /  -22.8 °C -14.1 °F /  -25.6 °C 30.82 in /  1043.6 hPa WSW 6.0 mph /  9.7 km/h 6.0 mph /  9.7 km/h 78 % 0.00 in /  0 mm 0.0 W/m2 CLR
20:58 -9.0 °F /  -22.8 °C -14.0 °F /  -25.6 °C 30.82 in /  1043.6 hPa West 7.0 mph /  11.3 km/h 7.0 mph /  11.3 km/h 78 % 0.00 in /  0 mm 0.0 W/m2 CLR
21:03 -9.0 °F /  -22.8 °C -14.0 °F /  -25.6 °C 30.82 in /  1043.6 hPa West 4.6 mph /  7.4 km/h 4.6 mph /  7.4 km/h 78 % 0.00 in /  0 mm 0.0 W/m2 CLR
21:06 -9.0 °F /  -22.8 °C -14.3 °F /  -25.7 °C 30.82 in /  1043.6 hPa West 4.6 mph /  7.4 km/h 4.6 mph /  7.4 km/h 77 % 0.00 in /  0 mm 0.0 W/m2 CLR
21:11 -9.1 °F /  -22.8 °C -14.4 °F /  -25.8 °C 30.82 in /  1043.6 hPa West 4.0 mph /  6.4 km/h 4.0 mph /  6.4 km/h 77 % 0.00 in /  0 mm 0.0 W/m2 CLR
21:17 -9.1 °F /  -22.8 °C -14.1 °F /  -25.6 °C 30.81 in /  1043.2 hPa West 4.6 mph /  7.4 km/h 4.6 mph /  7.4 km/h 78 % 0.00 in /  0 mm 0.0 W/m2 CLR
21:22 -9.0 °F /  -22.8 °C -14.0 °F /  -25.6 °C 30.81 in /  1043.2 hPa West 5.8 mph /  9.3 km/h 5.8 mph /  9.3 km/h 78 % 0.00 in /  0 mm 0.0 W/m2 CLR
21:27 -8.9 °F /  -22.7 °C -13.9 °F /  -25.5 °C 30.81 in /  1043.2 hPa WNW 8.1 mph /  13 km/h 8.1 mph /  13 km/h 78 % 0.00 in /  0 mm 0.0 W/m2 CLR
21:32 -8.8 °F /  -22.7 °C -13.8 °F /  -25.4 °C 30.81 in /  1043.2 hPa WSW 6.0 mph /  9.7 km/h 6.0 mph /  9.7 km/h 78 % 0.00 in /  0 mm 0.0 W/m2 CLR
21:37 -8.7 °F /  -22.6 °C -14.0 °F /  -25.6 °C 30.82 in /  1043.6 hPa West 5.8 mph /  9.3 km/h 5.8 mph /  9.3 km/h 77 % 0.00 in /  0 mm 0.0 W/m2 CLR
21:40 -8.8 °F /  -22.7 °C -14.1 °F /  -25.6 °C 30.81 in /  1043.2 hPa WSW 6.9 mph /  11.1 km/h 6.9 mph /  11.1 km/h 77 % 0.00 in /  0 mm 0.0 W/m2 CLR
21:43 -8.9 °F /  -22.7 °C -14.2 °F /  -25.7 °C 30.81 in /  1043.2 hPa WSW 5.8 mph /  9.3 km/h 5.8 mph /  9.3 km/h 77 % 0.00 in /  0 mm 0.0 W/m2 CLR
21:48 -9.3 °F /  -22.9 °C -14.6 °F /  -25.9 °C 30.82 in /  1043.6 hPa West 7.0 mph /  11.3 km/h 7.0 mph /  11.3 km/h 77 % 0.00 in /  0 mm 0.0 W/m2 CLR
21:49 -9.3 °F /  -22.9 °C -14.6 °F /  -25.9 °C 30.81 in /  1043.2 hPa West 6.9 mph /  11.1 km/h 6.9 mph /  11.1 km/h 77 % 0.00 in /  0 mm 0.0 W/m2 CLR
21:51 -9.5 °F /  -23.1 °C -14.7 °F /  -25.9 °C 30.82 in /  1043.6 hPa WSW 6.9 mph /  11.1 km/h 6.9 mph /  11.1 km/h 77 % 0.00 in /  0 mm 0.0 W/m2 CLR
21:56 -9.5 °F /  -23.1 °C -14.7 °F /  -25.9 °C 30.81 in /  1043.2 hPa WSW 9.2 mph /  14.8 km/h 9.2 mph /  14.8 km/h 77 % 0.00 in /  0 mm 0.0 W/m2 CLR
22:01 -9.6 °F /  -23.1 °C -14.8 °F /  -26 °C 30.82 in /  1043.6 hPa West 6.9 mph /  11.1 km/h 6.9 mph /  11.1 km/h 77 % 0.00 in /  0 mm 0.0 W/m2 CLR
22:03 -9.6 °F /  -23.1 °C -14.6 °F /  -25.9 °C 30.81 in /  1043.2 hPa West 8.1 mph /  13 km/h 8.1 mph /  13 km/h 78 % 0.00 in /  0 mm 0.0 W/m2 CLR
22:08 -9.6 °F /  -23.1 °C -14.6 °F /  -25.9 °C 30.81 in /  1043.2 hPa WSW 8.1 mph /  13 km/h 8.1 mph /  13 km/h 78 % 0.00 in /  0 mm 0.0 W/m2 CLR
22:14 -9.5 °F /  -23.1 °C -14.5 °F /  -25.8 °C 30.81 in /  1043.2 hPa West 5.0 mph /  8 km/h 5.0 mph /  8 km/h 78 % 0.00 in /  0 mm 0.0 W/m2 CLR
22:15 -9.5 °F /  -23.1 °C -14.5 °F /  -25.8 °C 30.81 in /  1043.2 hPa West 9.2 mph /  14.8 km/h 9.2 mph /  14.8 km/h 78 % 0.00 in /  0 mm 0.0 W/m2 CLR
22:20 -9.5 °F /  -23.1 °C -14.5 °F /  -25.8 °C 30.81 in /  1043.2 hPa WSW 4.0 mph /  6.4 km/h 4.9 mph /  7.9 km/h 78 % 0.00 in /  0 mm 0.0 W/m2 CLR
22:21 -9.5 °F /  -23.1 °C -14.5 °F /  -25.8 °C 30.81 in /  1043.2 hPa WSW 8.1 mph /  13 km/h 8.1 mph /  13 km/h 78 % 0.00 in /  0 mm 0.0 W/m2 CLR
22:25 -9.5 °F /  -23.1 °C -14.5 °F /  -25.8 °C 30.81 in /  1043.2 hPa WSW 5.8 mph /  9.3 km/h 5.8 mph /  9.3 km/h 78 % 0.00 in /  0 mm 0.0 W/m2 CLR
22:30 -9.6 °F /  -23.1 °C -14.6 °F /  -25.9 °C 30.81 in /  1043.2 hPa WSW 9.0 mph /  14.5 km/h 9.0 mph /  14.5 km/h 78 % 0.00 in /  0 mm 0.0 W/m2 CLR
22:31 -9.6 °F /  -23.1 °C -14.6 °F /  -25.9 °C 30.81 in /  1043.2 hPa West 10.4 mph /  16.7 km/h 10.4 mph /  16.7 km/h 78 % 0.00 in /  0 mm 0.0 W/m2 CLR
22:33 -9.6 °F /  -23.1 °C -14.6 °F /  -25.9 °C 30.81 in /  1043.2 hPa WSW 5.8 mph /  9.3 km/h 5.8 mph /  9.3 km/h 78 % 0.00 in /  0 mm 0.0 W/m2 CLR
22:38 -9.8 °F /  -23.2 °C -14.8 °F /  -26 °C 30.81 in /  1043.2 hPa SW 5.0 mph /  8 km/h 5.0 mph /  8 km/h 78 % 0.00 in /  0 mm 0.0 W/m2 CLR
22:42 -9.8 °F /  -23.2 °C -14.8 °F /  -26 °C 30.81 in /  1043.2 hPa WSW 8.1 mph /  13 km/h 8.1 mph /  13 km/h 78 % 0.00 in /  0 mm 0.0 W/m2 CLR
22:44 -9.9 °F /  -23.3 °C -14.6 °F /  -25.9 °C 30.81 in /  1043.2 hPa WSW 6.0 mph /  9.7 km/h 6.0 mph /  9.7 km/h 79 % 0.00 in /  0 mm 0.0 W/m2 CLR
22:48 -9.9 °F /  -23.3 °C -14.6 °F /  -25.9 °C 30.81 in /  1043.2 hPa WSW 5.8 mph /  9.3 km/h 5.8 mph /  9.3 km/h 79 % 0.00 in /  0 mm 0.0 W/m2 CLR
22:50 -10.0 °F /  -23.3 °C -14.7 °F /  -25.9 °C 30.81 in /  1043.2 hPa West 7.0 mph /  11.3 km/h 7.0 mph /  11.3 km/h 79 % 0.00 in /  0 mm 0.0 W/m2 CLR
22:55 -10.0 °F /  -23.3 °C -14.7 °F /  -25.9 °C 30.81 in /  1043.2 hPa West 8.1 mph /  13 km/h 8.1 mph /  13 km/h 79 % 0.00 in /  0 mm 0.0 W/m2 CLR
22:58 -10.1 °F /  -23.4 °C -14.8 °F /  -26 °C 30.81 in /  1043.2 hPa WSW 3.5 mph /  5.6 km/h 3.5 mph /  5.6 km/h 79 % 0.00 in /  0 mm 0.0 W/m2 CLR
23:00 -10.2 °F /  -23.4 °C -14.9 °F /  -26.1 °C 30.81 in /  1043.2 hPa WSW 4.6 mph /  7.4 km/h 4.6 mph /  7.4 km/h 79 % 0.00 in /  0 mm 0.0 W/m2 CLR
23:05 -10.3 °F /  -23.5 °C -15.0 °F /  -26.1 °C 30.81 in /  1043.2 hPa West 4.6 mph /  7.4 km/h 4.6 mph /  7.4 km/h 79 % 0.00 in /  0 mm 0.0 W/m2 CLR
23:06 -10.3 °F /  -23.5 °C -15.0 °F /  -26.1 °C 30.81 in /  1043.2 hPa West 2.3 mph /  3.7 km/h 2.3 mph /  3.7 km/h 79 % 0.00 in /  0 mm 0.0 W/m2 CLR
23:11 -10.4 °F /  -23.6 °C -15.1 °F /  -26.2 °C 30.81 in /  1043.2 hPa West 4.6 mph /  7.4 km/h 4.6 mph /  7.4 km/h 79 % 0.00 in /  0 mm 0.0 W/m2 CLR
23:12 -10.4 °F /  -23.6 °C -15.1 °F /  -26.2 °C 30.81 in /  1043.2 hPa West 2.3 mph /  3.7 km/h 2.3 mph /  3.7 km/h 79 % 0.00 in /  0 mm 0.0 W/m2 CLR
23:14 -10.4 °F /  -23.6 °C -14.9 °F /  -26.1 °C 30.81 in /  1043.2 hPa West 4.0 mph /  6.4 km/h 4.0 mph /  6.4 km/h 80 % 0.00 in /  0 mm 0.0 W/m2 CLR
23:19 -10.4 °F /  -23.6 °C -14.9 °F /  -26.1 °C 30.81 in /  1043.2 hPa WSW 4.0 mph /  6.4 km/h 4.0 mph /  6.4 km/h 80 % 0.00 in /  0 mm 0.0 W/m2 CLR
23:21 -10.4 °F /  -23.6 °C -14.9 °F /  -26.1 °C 30.81 in /  1043.2 hPa WSW 5.8 mph /  9.3 km/h 5.8 mph /  9.3 km/h 80 % 0.00 in /  0 mm 0.0 W/m2 CLR
23:23 -10.5 °F /  -23.6 °C -15.0 °F /  -26.1 °C 30.81 in /  1043.2 hPa West 5.8 mph /  9.3 km/h 5.8 mph /  9.3 km/h 80 % 0.00 in /  0 mm 0.0 W/m2 CLR
23:26 -10.7 °F /  -23.7 °C -15.4 °F /  -26.3 °C 30.80 in /  1042.9 hPa WSW 5.8 mph /  9.3 km/h 5.8 mph /  9.3 km/h 79 % 0.00 in /  0 mm 0.0 W/m2 CLR
23:31 -10.8 °F /  -23.8 °C -15.5 °F /  -26.4 °C 30.80 in /  1042.9 hPa WSW 8.1 mph /  13 km/h 8.1 mph /  13 km/h 79 % 0.00 in /  0 mm 0.0 W/m2 CLR
23:32 -10.8 °F /  -23.8 °C -15.5 °F /  -26.4 °C 30.80 in /  1042.9 hPa West 9.2 mph /  14.8 km/h 9.2 mph /  14.8 km/h 79 % 0.00 in /  0 mm 0.0 W/m2 CLR
23:33 -10.8 °F /  -23.8 °C -15.5 °F /  -26.4 °C 30.80 in /  1042.9 hPa WSW 6.9 mph /  11.1 km/h 6.9 mph /  11.1 km/h 79 % 0.00 in /  0 mm 0.0 W/m2 CLR
23:38 -10.8 °F /  -23.8 °C -15.3 °F /  -26.3 °C 30.80 in /  1042.9 hPa WSW 5.8 mph /  9.3 km/h 5.8 mph /  9.3 km/h 80 % 0.00 in /  0 mm 0.0 W/m2 CLR
23:41 -10.8 °F /  -23.8 °C -15.3 °F /  -26.3 °C 30.80 in /  1042.9 hPa West 5.8 mph /  9.3 km/h 5.8 mph /  9.3 km/h 80 % 0.00 in /  0 mm 0.0 W/m2 CLR
23:44 -10.9 °F /  -23.8 °C -15.4 °F /  -26.3 °C 30.80 in /  1042.9 hPa West 4.6 mph /  7.4 km/h 4.6 mph /  7.4 km/h 80 % 0.00 in /  0 mm 0.0 W/m2 CLR
23:46 -10.9 °F /  -23.8 °C -15.4 °F /  -26.3 °C 30.80 in /  1042.9 hPa West 4.6 mph /  7.4 km/h 4.6 mph /  7.4 km/h 80 % 0.00 in /  0 mm 0.0 W/m2 CLR
23:49 -10.8 °F /  -23.8 °C -15.3 °F /  -26.3 °C 30.80 in /  1042.9 hPa West 6.0 mph /  9.7 km/h 6.0 mph /  9.7 km/h 80 % 0.00 in /  0 mm 0.0 W/m2 CLR
23:54 -10.7 °F /  -23.7 °C -15.2 °F /  -26.2 °C 30.80 in /  1042.9 hPa West 5.0 mph /  8 km/h 5.0 mph /  8 km/h 80 % 0.00 in /  0 mm 0.0 W/m2 CLR
23:55 -10.7 °F /  -23.7 °C -15.2 °F /  -26.2 °C 30.80 in /  1042.9 hPa West 6.9 mph /  11.1 km/h 6.9 mph /  11.1 km/h 80 % 0.00 in /  0 mm 0.0 W/m2 CLR
Bourbonnais, Illinois, USA
Compliments of Weather Underground - 4.5 mb